Latitude: N 50° 09' 49" Longitude: W 05° 11' 53" Elevation: 168m ASL

There are 15 visitors online

Adverts

<- Previous Day | Today | Next Day ->

All Data for 11 December 2017

Time
A - D
Temp
A - D
Dew Point
A - D
Humidity
A - D
Pressure
A - D
Wind
A - D
Wind Dir Gust
A - D
Rain Rate
A - D
Rain Total
00:00 4.3 4.2 99 976.0 3.1 NE 4.5 0.0 0.0
00:02 4.3 4.2 99 976.0 3.1 NE 4.5 0.0 0.0
00:03 4.3 4.2 99 976.0 3.1 NE 4.5 0.0 0.0
00:05 4.3 4.2 99 975.9 3.1 NE 4.5 0.0 0.0
00:06 4.3 4.2 99 976.0 3.8 NE 4.5 0.0 0.0
00:08 4.3 4.2 99 975.9 3.1 NE 3.8 0.0 0.0
00:09 4.3 4.2 99 976.0 3.1 NE 3.8 0.0 0.0
00:10 4.3 4.2 99 976.1 3.1 NE 3.8 0.0 0.0
00:12 4.3 4.2 99 976.0 3.1 NE 3.8 0.0 0.0
00:13 4.3 4.2 99 976.0 3.1 NE 3.8 0.0 0.0
00:14 4.3 4.2 99 975.9 3.8 NE 3.8 0.0 0.0
00:15 4.3 4.2 99 975.9 3.1 NE 3.8 0.0 0.0
00:16 4.3 4.2 99 976.1 2.2 NE 3.8 0.0 0.0
00:17 4.3 4.2 99 976.0 3.1 NE 3.8 0.0 0.0
00:18 4.3 4.2 99 976.1 3.1 NE 3.8 0.0 0.0
00:19 4.3 4.2 99 976.1 3.1 NE 3.8 0.0 0.0
00:20 4.3 4.2 99 976.0 2.2 NNE 3.8 0.0 0.0
00:21 4.3 4.2 99 976.0 2.2 NNE 3.8 0.0 0.0
00:22 4.4 4.3 99 976.1 2.2 NNE 3.8 0.0 0.0
00:23 4.4 4.3 99 976.0 1.6 NNE 3.8 0.0 0.0
00:24 4.4 4.3 99 976.0 1.6 NNE 3.1 0.0 0.0
00:25 4.4 4.3 99 976.0 1.6 NNE 3.1 0.0 0.0
00:26 4.4 4.3 99 976.0 1.6 NNE 3.1 0.0 0.0
00:27 4.4 4.3 99 976.1 2.2 NNE 3.1 0.0 0.0
00:28 4.4 4.3 99 975.9 2.2 NNE 3.1 0.0 0.0
00:30 4.3 4.2 99 976.0 3.1 NNE 3.1 0.0 0.0
00:31 4.3 4.2 99 976.0 1.6 NNE 3.1 0.0 0.0
00:32 4.3 4.2 99 976.0 3.1 NNE 3.1 0.0 0.0
00:33 4.3 4.2 99 976.1 3.1 NNE 3.1 0.0 0.0
00:34 4.3 4.2 99 976.0 3.1 NE 3.1 0.0 0.0
00:35 4.3 4.2 99 975.9 3.1 NE 3.1 0.0 0.0
00:36 4.3 4.2 99 976.0 3.1 NE 3.1 0.0 0.0
00:37 4.2 4.1 99 976.1 3.8 NE 3.8 0.0 0.0
00:38 4.2 4.1 99 976.0 4.5 NE 4.5 0.0 0.0
00:39 4.2 4.1 99 976.1 3.8 NE 4.5 0.0 0.0
00:40 4.2 4.1 99 976.1 3.1 NE 4.5 0.0 0.0
00:41 4.3 4.2 99 976.2 3.1 NE 4.5 0.0 0.0
00:42 4.3 4.2 99 975.9 4.5 NE 4.5 0.0 0.0
00:44 4.3 4.2 99 976.0 2.2 NE 4.5 0.0 0.0
00:46 4.3 4.2 99 976.0 2.2 NE 4.5 0.0 0.0
00:47 4.3 4.2 99 976.0 2.2 NE 4.5 0.0 0.0
00:48 4.3 4.2 99 975.9 3.1 NE 4.5 0.0 0.0
00:49 4.3 4.2 99 976.1 3.8 N 4.5 0.0 0.0
00:50 4.3 4.2 99 975.9 2.2 N 4.5 0.0 0.0
00:51 4.3 4.2 99 976.0 3.1 NE 4.5 0.0 0.0
00:52 4.3 4.2 99 976.1 3.8 NE 4.5 0.0 0.0
00:53 4.4 4.3 99 976.1 2.2 NE 3.8 0.0 0.0
00:54 4.4 4.3 99 976.0 3.1 NE 3.8 0.0 0.0
00:55 4.4 4.3 99 976.0 2.2 N 3.8 0.0 0.0
00:56 4.4 4.3 99 975.9 1.6 N 3.8 0.0 0.0
00:57 4.4 4.3 99 976.1 1.6 N 3.8 0.0 0.0
00:58 4.4 4.3 99 976.1 3.1 N 3.8 0.0 0.0
00:59 4.4 4.3 99 976.0 3.1 N 3.8 0.0 0.0
01:00 4.4 4.3 99 975.9 1.6 N 3.8 0.0 0.0
01:01 4.4 4.3 99 976.0 1.6 N 3.8 0.0 0.0
01:02 4.4 4.3 99 976.0 1.6 N 3.1 0.0 0.0
01:03 4.4 4.3 99 976.1 1.6 N 3.1 0.0 0.0
01:05 4.4 4.3 99 975.9 1.6 N 3.1 0.0 0.0
01:06 4.6 4.5 99 976.0 2.2 N 3.1 0.0 0.0
01:07 4.6 4.5 99 976.1 1.6 N 3.1 0.0 0.0
01:08 4.6 4.5 99 976.0 3.1 N 3.1 0.0 0.0
01:09 4.6 4.5 99 976.0 3.1 N 3.1 0.0 0.0
01:10 4.6 4.5 99 976.1 1.6 N 3.1 0.0 0.0
01:11 4.6 4.5 99 976.1 3.8 N 3.8 0.0 0.0
01:13 4.6 4.5 99 975.9 3.8 N 3.8 0.0 0.0
01:14 4.7 4.6 99 976.1 3.8 N 3.8 0.0 0.0
01:15 4.7 4.6 99 976.0 3.8 NE 3.8 0.0 0.0
01:16 4.7 4.6 99 976.0 4.5 N 4.5 0.0 0.0
01:17 4.7 4.6 99 976.0 3.1 N 4.5 0.0 0.0
01:18 4.7 4.6 99 976.1 3.1 N 4.5 0.0 0.0
01:19 4.7 4.6 99 976.2 6.9 N 6.9 0.0 0.0
01:20 4.7 4.6 99 976.2 3.8 N 6.9 0.0 0.0
01:21 4.8 4.7 99 976.2 7.6 N 7.6 0.0 0.0
01:22 4.8 4.7 99 976.0 5.4 NW 7.6 0.0 0.0
01:23 4.8 4.7 99 976.1 6.9 N 7.6 0.0 0.0
01:24 4.9 4.8 99 976.0 6.9 N 7.6 0.0 0.0
01:25 4.9 4.8 99 976.0 6.9 N 7.6 0.8 0.1
01:26 4.9 4.8 99 976.2 7.6 N 7.6 0.8 0.1
01:27 5.0 4.9 99 976.0 4.5 N 7.6 0.8 0.1
01:28 5.0 4.9 99 976.2 6.0 NW 7.6 0.8 0.1
01:30 5.0 4.9 99 976.3 7.6 N 7.6 0.0 0.1
01:31 5.0 4.9 99 976.1 5.4 N 7.6 0.8 0.1
01:32 5.1 5.0 99 976.1 6.0 N 7.6 0.8 0.1
01:33 5.1 5.0 99 976.1 5.4 N 7.6 0.8 0.1
01:34 5.1 5.0 99 976.1 5.4 NW 7.6 0.8 0.1
01:35 5.1 5.0 99 976.0 12.1 N 12.1 0.8 0.1
01:36 5.1 5.0 99 976.1 6.9 N 12.1 0.0 0.1
01:37 5.1 5.0 99 976.1 8.3 N 12.1 0.0 0.1
01:38 5.1 5.0 99 976.1 6.0 NW 12.1 0.0 0.1
01:39 5.2 5.1 99 976.0 13.6 NW 13.6 0.0 0.1
01:40 5.2 5.1 99 976.0 6.9 NW 13.6 0.0 0.1
01:41 5.2 5.1 99 976.0 8.3 N 13.6 0.0 0.1
01:42 5.2 5.1 99 976.2 7.6 NW 13.6 0.0 0.1
01:43 5.2 5.1 99 976.0 9.8 N 13.6 0.0 0.1
01:44 5.2 5.1 99 975.9 4.5 NW 13.6 0.0 0.1
01:45 5.2 5.1 99 975.9 6.9 N 13.6 0.0 0.1
01:46 5.2 5.1 99 976.0 7.6 NW 13.6 0.0 0.1
01:47 5.2 5.1 99 976.0 6.0 NW 13.6 0.0 0.1
01:48 5.2 5.1 99 976.1 8.3 NW 13.6 0.0 0.1
01:49 5.2 5.1 99 975.9 9.8 N 9.8 0.0 0.1
01:50 5.2 5.1 99 976.0 9.2 N 9.8 0.0 0.1
01:51 5.2 5.1 99 976.1 8.3 N 9.8 0.0 0.1
01:52 5.2 5.1 99 975.9 9.8 N 9.8 0.0 0.1
01:53 5.2 5.1 99 976.0 9.2 N 9.8 0.0 0.1
01:54 5.2 5.1 99 975.9 7.6 NW 9.8 0.0 0.1
01:56 5.2 5.1 99 976.0 7.6 N 9.8 0.0 0.1
01:57 5.2 5.1 99 975.9 7.6 NW 9.8 0.0 0.1
01:58 5.2 5.1 99 975.9 6.0 N 9.8 0.0 0.1
01:59 5.2 5.1 99 975.9 6.0 NW 9.8 0.0 0.1
02:00 5.2 5.1 99 975.9 11.4 NW 11.4 0.0 0.1
02:01 5.2 5.1 99 975.9 11.4 NW 11.4 0.0 0.1
02:02 5.2 5.1 99 976.1 11.4 NW 11.4 0.0 0.1
02:03 5.2 5.1 99 976.0 11.4 NW 11.4 0.0 0.1
02:04 5.2 5.1 99 975.9 11.4 NW 11.4 0.0 0.1
02:05 5.2 5.1 99 975.9 11.4 NW 11.4 0.0 0.1
02:06 5.2 5.1 99 975.8 10.7 NW 11.4 0.0 0.1
02:08 5.2 5.1 99 975.8 9.8 NW 11.4 0.0 0.1
02:09 5.2 5.1 99 976.0 8.3 NW 11.4 0.0 0.1
02:10 5.2 5.1 99 976.2 12.1 NW 12.1 0.0 0.1
02:11 5.2 5.1 99 976.2 10.7 NW 12.1 0.0 0.1
02:12 5.2 5.1 99 976.1 7.6 NW 12.1 0.0 0.1
02:13 5.2 5.1 99 976.0 13.0 N 13.0 0.0 0.1
02:14 5.2 5.1 99 976.0 8.3 NW 13.0 0.0 0.1
02:15 5.2 5.1 99 976.0 18.3 N 18.3 0.0 0.1
02:16 5.2 5.1 99 976.0 8.3 N 18.3 0.0 0.1
02:17 5.2 5.1 99 976.0 10.7 NW 18.3 0.0 0.1
02:18 5.2 5.1 99 975.9 9.2 NW 18.3 0.0 0.1
02:19 5.2 5.1 99 976.1 14.5 N 18.3 0.0 0.1
02:20 5.2 5.1 99 976.1 15.9 NW 18.3 0.0 0.1
02:21 5.2 5.1 99 976.1 11.4 NW 18.3 0.0 0.1
02:22 5.2 5.1 99 976.1 9.8 NW 18.3 0.0 0.1
02:24 5.2 5.1 99 976.2 9.2 N 18.3 0.0 0.1
02:25 5.2 5.1 99 976.1 9.8 N 18.3 0.0 0.1
02:26 5.2 5.1 99 976.0 6.9 NW 15.9 0.0 0.1
02:27 5.2 5.1 99 976.1 9.2 W 15.9 0.0 0.1
02:28 5.2 5.1 99 976.0 9.8 NW 15.9 0.0 0.1
02:29 5.2 5.1 99 976.1 6.0 NW 15.9 0.0 0.1
02:30 5.1 5.0 99 976.1 6.0 N 15.9 0.0 0.1
02:31 5.1 5.0 99 976.1 11.4 NE 13.6 0.0 0.1
02:32 5.1 5.0 99 976.2 11.4 NW 13.6 0.0 0.1
02:33 5.1 5.0 99 976.1 11.4 NW 13.6 0.0 0.1
02:34 5.1 5.0 99 976.2 9.8 NW 13.6 0.0 0.1
02:35 5.0 4.9 99 976.2 9.2 WSW 13.6 0.0 0.1
02:36 5.0 4.9 99 976.2 12.1 N 13.6 0.0 0.1
02:37 5.0 4.9 99 976.0 10.7 NW 13.6 0.0 0.1
02:38 5.0 4.9 99 976.1 11.4 NW 13.6 0.0 0.1
02:39 4.9 4.8 99 976.1 10.7 NW 15.2 0.8 0.2
02:41 4.9 4.8 99 976.1 6.0 NE 15.2 0.8 0.2
02:42 4.8 4.7 99 976.0 15.9 N 15.9 0.8 0.2
02:43 4.8 4.7 99 976.2 10.7 NW 15.9 0.8 0.2
02:44 4.8 4.7 99 976.0 13.0 WNW 15.9 0.0 0.2
02:45 4.7 4.6 99 976.2 13.6 N 15.9 0.0 0.2
02:46 4.7 4.6 99 976.1 12.1 NW 15.9 0.0 0.2
02:47 4.6 4.5 99 976.0 15.2 N 15.9 0.0 0.2
02:48 4.6 4.5 99 975.9 9.2 NE 15.9 0.0 0.2
02:49 4.6 4.5 99 976.0 13.0 N 15.9 0.0 0.2
02:50 4.5 4.4 99 975.9 16.8 E 16.8 0.0 0.2
02:51 4.5 4.4 99 975.9 8.3 NE 16.8 0.0 0.2
02:52 4.5 4.4 99 976.0 9.8 N 16.8 0.0 0.3
02:53 4.4 4.3 99 975.9 14.5 N 16.8 0.8 0.3
02:54 4.4 4.3 99 976.1 17.4 NE 17.4 0.8 0.3
02:55 4.3 4.2 99 975.9 11.4 NW 17.4 0.8 0.3
02:56 4.3 4.2 99 976.0 11.4 NE 17.4 0.8 0.3
02:57 4.3 4.2 99 975.8 15.2 NW 17.4 0.8 0.3
02:58 4.2 4.1 99 976.1 13.0 N 17.4 0.0 0.3
02:59 4.2 4.1 99 976.0 7.6 N 17.4 0.0 0.3
03:00 4.2 4.1 99 976.1 7.6 N 17.4 0.0 0.3
03:01 4.2 4.1 99 976.1 7.6 N 17.4 0.0 0.3
03:02 4.2 4.1 99 975.9 7.6 N 17.4 0.0 0.3
03:03 4.2 4.1 99 976.0 7.6 N 17.4 0.0 0.3
03:05 4.2 4.1 99 976.0 7.6 N 15.2 0.0 0.3
03:06 4.0 3.9 99 975.9 15.2 NE 15.2 0.0 0.3
03:07 4.0 3.9 99 976.0 17.4 NW 17.4 0.0 0.3
03:08 4.0 3.9 99 975.8 9.8 SE 17.4 0.0 0.3
03:09 3.9 3.8 99 975.9 18.3 SE 18.3 0.0 0.3
03:11 3.9 3.8 99 975.8 6.0 N 18.3 0.0 0.3
03:12 3.9 3.8 99 975.9 9.2 N 18.3 0.0 0.3
03:13 3.9 3.8 99 975.9 11.4 NE 18.3 0.0 0.3
03:14 3.6 3.5 99 975.9 8.3 W 18.3 0.0 0.3
03:15 3.8 3.7 99 975.8 9.8 NE 18.3 0.0 0.3
03:16 3.8 3.7 99 976.0 9.2 N 18.3 0.0 0.3
03:17 3.8 3.7 99 976.0 11.4 NE 18.3 0.0 0.3
03:18 3.7 3.6 99 976.0 14.5 NW 18.3 0.0 0.3
03:19 3.7 3.6 99 975.9 7.6 N 18.3 0.0 0.3
03:20 3.7 3.6 99 975.9 19.0 N 19.0 0.0 0.3
03:21 3.6 3.5 99 975.9 12.1 N 19.0 0.0 0.3
03:22 3.6 3.5 99 976.0 16.8 NE 19.0 0.0 0.3
03:23 3.6 3.5 99 975.9 15.2 N 19.0 0.0 0.3
03:24 3.6 3.5 99 976.0 9.8 NW 19.0 0.0 0.3
03:25 3.6 3.5 99 975.9 13.6 N 19.0 0.0 0.3
03:26 3.5 3.4 99 976.0 11.4 N 19.0 0.0 0.3
03:27 3.5 3.4 99 975.9 8.3 NE 19.0 0.0 0.3
03:28 3.5 3.4 99 976.1 13.0 NW 19.0 0.0 0.3
03:29 3.5 3.4 99 976.0 9.2 NE 19.0 0.0 0.3
03:30 3.5 3.4 99 976.0 13.6 NE 18.3 0.0 0.3
03:31 3.4 3.3 99 976.1 13.0 NE 18.3 0.0 0.3
03:33 3.4 3.3 99 976.1 15.2 N 18.3 0.0 0.3
03:34 3.4 3.3 99 975.9 15.2 WNW 18.3 0.0 0.3
03:35 3.4 3.3 99 976.2 15.9 N 18.3 0.0 0.3
03:36 3.4 3.3 99 976.1 11.4 NE 18.3 0.0 0.3
03:37 3.4 3.3 99 976.2 9.2 NE 18.3 0.0 0.3
03:38 3.4 3.3 99 976.1 10.7 E 15.9 0.0 0.3
03:39 3.4 3.3 99 976.2 17.4 NW 17.4 0.0 0.3
03:40 3.4 3.3 99 976.2 11.4 N 17.4 0.0 0.3
03:41 3.4 3.3 99 976.2 10.7 NW 17.4 0.0 0.3
03:42 3.4 3.3 99 976.2 15.9 N 17.4 0.0 0.3
03:43 3.4 3.3 99 976.2 18.3 WNW 18.3 0.0 0.3
03:44 3.3 3.2 99 976.3 9.2 NW 18.3 0.0 0.3
03:45 3.3 3.2 99 976.3 14.5 W 18.3 0.0 0.3
03:46 3.3 3.2 99 976.3 10.7 N 18.3 0.0 0.3
03:47 3.3 3.2 99 976.2 16.8 NW 18.3 0.0 0.3
03:48 3.3 3.2 99 976.3 9.2 NE 18.3 0.0 0.3
03:49 3.3 3.2 99 976.3 12.1 N 18.3 0.0 0.3
03:50 3.3 3.2 99 976.4 15.9 N 18.3 0.0 0.3
03:51 3.3 3.2 99 976.2 14.5 N 18.3 0.0 0.3
03:52 3.3 3.2 99 976.2 13.6 NE 18.3 0.0 0.3
03:53 3.3 3.2 99 976.3 12.1 N 16.8 0.0 0.3
03:55 3.3 3.2 99 976.3 13.6 N 16.8 0.0 0.3
03:56 3.3 3.2 99 976.3 12.1 NE 16.8 0.0 0.3
03:57 3.3 3.2 99 976.5 10.7 N 16.8 0.0 0.3
03:58 3.3 3.2 99 976.4 8.3 N 15.9 0.0 0.3
03:59 3.3 3.2 99 976.4 12.1 NW 15.9 0.0 0.3
04:00 3.3 3.2 99 976.4 16.8 N 16.8 0.0 0.3
04:01 3.3 3.2 99 976.4 16.8 N 16.8 0.0 0.3
04:02 3.3 3.2 99 976.4 16.8 N 16.8 0.0 0.3
04:03 3.3 3.2 99 976.5 16.8 N 16.8 0.0 0.3
04:04 3.3 3.2 99 976.5 16.8 N 16.8 0.0 0.3
04:05 3.4 3.3 99 976.4 13.0 NE 16.8 0.0 0.3
04:07 3.4 3.3 99 976.6 6.9 N 16.8 0.0 0.3
04:08 3.3 3.2 99 976.6 9.2 N 16.8 0.0 0.3
04:09 3.4 3.3 99 976.4 11.4 NW 16.8 0.0 0.3
04:10 3.3 3.2 99 976.7 10.7 N 16.8 0.0 0.3
04:11 3.4 3.3 99 976.8 14.5 E 17.4 0.0 0.3
04:12 3.3 3.2 99 976.6 11.4 SW 17.4 0.0 0.3
04:13 3.4 3.3 99 976.7 9.8 SW 17.4 0.0 0.3
04:14 3.3 3.2 99 976.8 13.6 N 17.4 0.0 0.3
04:15 3.3 3.2 99 976.8 15.2 NW 17.4 0.0 0.3
04:16 3.3 3.2 99 976.6 10.7 N 17.4 0.0 0.3
04:18 3.3 3.2 99 976.6 15.9 NW 17.4 0.0 0.3
04:19 3.3 3.2 99 976.7 24.4 NE 24.4 0.0 0.3
04:20 3.3 3.2 99 976.7 12.1 NW 24.4 0.0 0.3
04:21 3.3 3.2 99 976.9 18.3 NE 24.4 0.0 0.3
04:22 3.3 3.2 99 976.8 15.9 NE 24.4 0.0 0.3
04:23 3.3 3.2 99 976.9 17.4 NW 24.4 0.0 0.3
04:24 3.3 3.2 99 977.0 17.4 NE 24.4 0.0 0.3
04:25 3.3 3.2 99 977.0 15.2 NE 24.4 0.8 0.3
04:26 3.3 3.2 99 977.0 12.1 NE 24.4 0.8 0.3
04:27 3.3 3.2 99 977.0 9.8 NW 24.4 0.8 0.3
04:28 3.3 3.2 99 976.9 11.4 N 24.4 0.8 0.3
04:29 3.3 3.2 99 976.9 10.7 NW 18.3 0.8 0.3
04:30 3.3 3.2 99 977.0 10.7 N 18.3 0.0 0.3
04:31 3.3 3.2 99 977.0 13.6 N 18.3 0.0 0.3
04:32 3.3 3.2 99 977.0 16.8 NE 17.4 0.0 0.3
04:33 3.3 3.2 99 977.1 19.0 N 19.0 0.0 0.3
04:34 3.3 3.2 99 977.1 24.4 N 24.4 0.0 0.3
04:35 3.2 3.1 99 977.2 13.6 WSW 24.4 0.0 0.3
04:36 3.3 3.2 99 977.3 12.1 NE 24.4 0.0 0.3
04:37 3.3 3.2 99 977.3 22.1 N 24.4 0.0 0.3
04:38 3.3 3.2 99 977.3 13.0 N 24.4 0.0 0.3
04:40 3.3 3.2 99 977.4 10.7 WNW 24.4 0.0 0.3
04:41 3.2 3.1 99 977.3 18.3 NW 24.4 0.0 0.3
04:42 3.2 3.1 99 977.2 13.0 NE 24.4 0.0 0.4
04:43 3.2 3.1 99 977.4 9.2 NW 24.4 0.8 0.4
04:44 3.1 3.0 99 977.4 15.9 N 24.4 0.8 0.4
04:45 3.2 3.1 99 977.5 9.2 NE 22.1 1.5 0.4
04:46 3.2 3.1 99 977.6 17.4 N 22.1 1.5 0.4
04:47 3.2 3.1 99 977.5 14.5 N 22.1 1.5 0.4
04:48 3.2 3.1 99 977.7 19.0 N 19.0 0.8 0.4
04:49 3.2 3.1 99 977.7 8.3 NW 19.0 0.8 0.4
04:50 3.2 3.1 99 977.7 17.4 NW 19.0 0.0 0.5
04:51 3.2 3.1 99 977.7 15.2 NW 19.0 0.8 0.5
04:52 3.2 3.1 99 977.8 13.6 E 19.0 0.8 0.5
04:53 3.1 3.0 99 977.9 13.0 N 19.0 0.8 0.5
04:54 3.1 3.0 99 977.8 11.4 WNW 19.0 0.8 0.5
04:55 3.1 3.0 99 977.8 9.8 NW 19.0 1.5 0.6
04:56 3.1 3.0 99 977.9 14.5 SE 19.0 0.8 0.6
04:57 3.1 3.0 99 977.8 13.0 N 19.0 0.8 0.6
04:58 3.1 3.0 99 977.8 16.8 NW 17.4 0.8 0.6
04:59 3.1 3.0 99 977.9 13.0 NE 19.0 0.8 0.6
05:00 3.1 3.0 99 978.1 13.0 NE 19.0 0.0 0.6
05:01 3.1 3.0 99 977.9 13.0 NE 19.0 0.0 0.6
05:02 3.1 3.0 99 978.1 13.0 NE 19.0 0.0 0.6
05:04 3.1 3.0 99 977.9 13.0 NE 19.0 0.0 0.6
05:05 3.0 2.9 99 978.2 13.0 N 19.0 0.0 0.8
05:06 3.0 2.9 99 978.1 13.0 N 19.0 3.0 0.9
05:08 3.0 2.9 99 978.2 9.2 NW 19.0 3.8 0.9
05:09 3.0 2.9 99 978.3 9.8 NW 13.0 4.5 0.9
05:10 2.9 2.8 99 978.3 15.2 N 15.2 4.5 0.9
05:11 2.9 2.8 99 978.2 9.2 N 15.2 1.5 0.9
05:12 2.9 2.8 99 978.2 9.8 NE 15.2 0.8 1.0
05:13 2.9 2.8 99 978.2 11.4 NE 15.2 1.5 1.0
05:14 2.9 2.8 99 978.2 11.4 N 15.2 0.8 1.0
05:15 2.8 2.7 99 978.5 8.3 N 15.2 1.5 1.1
05:17 2.8 2.7 99 978.5 16.8 E 16.8 1.5 1.1
05:18 2.8 2.7 99 978.6 15.2 NW 16.8 1.5 1.1
05:19 2.8 2.7 99 978.6 17.4 N 17.4 1.5 1.2
05:20 2.7 2.6 99 978.4 9.2 N 17.4 1.5 1.2
05:21 2.8 2.7 99 978.5 9.2 NW 17.4 1.5 1.2
05:22 2.7 2.6 99 978.6 11.4 NE 17.4 1.5 1.2
05:23 2.7 2.6 99 978.5 9.8 W 17.4 0.8 1.2
05:24 2.7 2.6 99 978.5 11.4 NE 17.4 1.5 1.3
05:25 2.7 2.6 99 978.7 11.4 NW 17.4 0.8 1.3
05:26 2.7 2.6 99 978.7 10.7 N 17.4 0.8 1.3
05:27 2.7 2.6 99 978.8 10.7 N 17.4 0.8 1.3
05:28 2.6 2.5 99 978.7 12.1 N 17.4 0.8 1.3
05:29 2.7 2.6 99 978.8 9.8 N 12.1 0.0 1.3
05:30 2.7 2.6 99 978.8 7.6 E 12.1 0.0 1.3
05:31 2.7 2.6 99 978.8 9.2 NE 15.2 0.8 1.3
05:32 2.7 2.6 99 978.9 6.9 NE 15.2 0.8 1.3
05:33 2.8 2.7 99 979.0 9.2 N 15.2 0.8 1.3
05:34 2.8 2.7 99 979.0 6.0 N 15.2 0.8 1.3
05:35 2.8 2.7 99 978.9 9.2 NW 15.2 0.8 1.3
05:36 2.8 2.7 99 979.0 15.9 NE 15.9 0.0 1.3
05:37 2.8 2.7 99 979.1 9.8 NE 15.9 0.0 1.3
05:39 2.9 2.8 99 979.2 9.2 N 15.9 0.0 1.3
05:40 2.9 2.8 99 979.1 12.1 N 15.9 0.0 1.3
05:41 2.9 2.8 99 979.2 10.7 N 15.9 0.0 1.3
05:42 2.9 2.8 99 979.1 15.2 N 15.9 0.0 1.4
05:43 2.9 2.8 99 979.2 14.5 N 15.9 0.8 1.4
05:44 2.9 2.8 99 979.2 9.2 N 15.9 0.8 1.4
05:45 3.0 2.9 99 979.2 13.0 N 15.9 0.8 1.4
05:46 3.0 2.9 99 979.2 13.6 W 15.9 0.8 1.4
05:47 3.0 2.9 99 979.3 12.1 NW 15.9 0.8 1.4
05:48 3.0 2.9 99 979.5 10.7 N 15.9 0.0 1.4
05:49 3.0 2.9 99 979.4 12.1 N 17.4 0.0 1.4
05:50 3.0 2.9 99 979.4 17.4 N 17.4 0.0 1.4
05:51 3.0 2.9 99 979.5 9.8 SE 17.4 0.0 1.4
05:52 3.0 2.9 99 979.7 11.4 NW 17.4 0.0 1.4
05:53 3.0 2.9 99 979.5 7.6 N 17.4 0.0 1.4
05:54 3.0 2.9 99 979.7 6.9 WNW 17.4 0.0 1.4
05:55 3.0 2.9 99 979.7 13.0 NW 17.4 0.0 1.4
05:56 3.0 2.9 99 979.8 7.6 NW 17.4 0.0 1.4
05:57 3.0 2.9 99 979.9 7.6 N 17.4 0.0 1.4
05:58 3.0 2.9 99 979.8 9.8 NW 17.4 0.0 1.4
05:59 3.0 2.9 99 979.9 15.9 NE 17.4 0.0 1.4
06:01 3.0 2.9 99 979.8 15.9 NE 17.4 0.0 1.4
06:02 3.0 2.9 99 979.9 15.9 NE 15.9 0.0 1.4
06:03 3.0 2.9 99 979.9 15.9 NE 15.9 0.0 1.4
06:04 3.0 2.9 99 979.9 15.9 NE 15.9 0.0 1.4
06:05 3.0 2.9 99 980.0 16.8 NW 16.8 0.0 1.4
06:06 3.0 2.9 99 979.9 13.6 N 16.8 0.0 1.4
06:08 3.7 3.6 99 980.3 6.9 NW 16.8 0.0 1.4
06:10 3.0 2.9 99 980.2 8.3 NE 16.8 0.0 1.4
06:11 3.0 2.9 99 980.2 15.9 NW 16.8 0.0 1.4
06:12 3.0 2.9 99 980.2 13.0 NW 16.8 0.0 1.4
06:13 3.0 2.9 99 980.3 7.6 N 16.8 0.0 1.4
06:14 3.0 2.9 99 980.4 14.5 NW 16.8 0.0 1.4
06:15 3.0 2.9 99 980.3 15.2 NW 15.9 0.0 1.4
06:16 3.0 2.9 99 980.3 11.4 N 15.9 0.0 1.4
06:17 3.0 2.9 99 980.3 9.2 S 15.9 0.0 1.4
06:18 3.0 2.9 99 980.2 17.4 S 17.4 0.0 1.4
06:20 3.0 2.9 99 980.4 7.6 E 19.0 0.8 1.4
06:21 3.0 2.9 99 980.3 15.2 NW 19.0 0.8 1.4
06:22 3.0 2.9 99 980.3 18.3 N 19.0 0.8 1.4
06:23 3.0 2.9 99 980.2 12.1 N 19.0 0.8 1.4
06:24 3.0 2.9 99 980.6 13.0 NW 19.0 0.8 1.4
06:25 3.0 2.9 99 980.4 9.2 N 19.0 0.0 1.4
06:26 3.0 2.9 99 980.6 13.6 N 19.0 0.0 1.4
06:28 3.0 2.9 99 980.5 15.2 N 19.0 0.0 1.4
06:29 3.0 2.9 99 980.6 15.2 N 19.0 0.0 1.4
06:30 3.0 2.9 99 980.6 8.3 N 18.3 0.0 1.4
06:31 3.0 2.9 99 980.8 12.1 N 18.3 0.0 1.4
06:32 3.0 2.9 99 980.6 15.9 NW 18.3 0.0 1.4
06:33 3.0 2.9 99 980.7 12.1 NE 16.8 0.0 1.4
06:34 3.0 2.9 99 980.7 13.0 NW 15.9 0.0 1.4
06:35 3.0 2.9 99 980.7 10.7 N 15.9 0.0 1.4
06:36 3.0 2.9 99 980.6 15.9 N 15.9 0.0 1.4
06:38 3.0 2.9 99 980.7 9.2 NE 15.9 0.0 1.4
06:39 3.0 2.9 99 981.1 9.2 NW 15.9 0.0 1.4
06:40 3.0 2.9 99 981.0 13.6 NW 15.9 0.0 1.4
06:41 3.0 2.9 99 981.0 12.1 N 15.9 0.0 1.4
06:42 3.0 2.9 99 980.9 11.4 N 15.9 0.0 1.4
06:43 3.0 2.9 99 981.1 12.1 N 15.9 0.0 1.4
06:44 3.0 2.9 99 980.8 12.1 N 15.9 0.0 1.4
06:45 3.0 2.9 99 981.0 11.4 N 15.9 0.0 1.4
06:46 3.0 2.9 99 981.2 8.3 NW 15.9 0.0 1.4
06:47 3.0 2.9 99 981.0 16.8 N 16.8 0.0 1.4
06:48 3.0 2.9 99 981.3 11.4 N 16.8 0.0 1.4
06:49 3.0 2.9 99 981.2 12.1 N 16.8 0.0 1.4
06:50 3.0 2.9 99 981.1 9.2 NE 16.8 0.0 1.4
06:51 3.0 2.9 99 981.3 7.6 NW 16.8 0.0 1.5
06:52 3.0 2.9 99 981.4 9.8 N 16.8 0.8 1.5
06:54 2.9 2.8 99 981.4 9.8 N 16.8 0.8 1.5
06:55 3.0 2.9 99 981.5 10.7 N 16.8 0.8 1.5
06:56 3.0 2.9 99 981.6 12.1 NW 16.8 0.8 1.5
06:57 2.9 2.8 99 981.5 14.5 N 17.4 0.8 1.6
06:58 2.9 2.8 99 981.5 19.0 NNW 19.0 0.8 1.6
06:59 2.9 2.8 99 981.5 14.5 E 19.0 0.8 1.6
07:00 2.9 2.8 99 981.6 13.0 NW 19.0 0.8 1.6
07:01 2.9 2.8 99 981.6 13.0 NW 19.0 0.8 1.6
07:02 2.9 2.8 99 981.8 13.0 NW 19.0 0.0 1.6
07:03 2.9 2.8 99 981.7 13.0 NW 19.0 0.0 1.6
07:04 2.9 2.8 99 981.7 13.0 NW 19.0 0.0 1.6
07:05 2.8 2.7 99 981.8 20.6 NE 20.6 0.0 1.7
07:07 2.8 2.7 99 981.9 11.4 N 20.6 1.5 1.7
07:09 2.8 2.7 99 981.9 13.6 N 20.6 2.3 1.8
07:10 2.7 2.6 99 981.8 11.4 N 20.6 2.3 1.8
07:12 2.7 2.6 99 982.0 11.4 N 20.6 0.8 1.8
07:13 2.7 2.6 99 982.0 9.2 SE 20.6 0.0 1.8
07:14 2.7 2.6 99 982.1 12.1 W 20.6 0.0 1.8
07:15 2.7 2.6 99 982.1 9.2 N 20.6 0.8 1.8
07:16 2.7 2.6 99 982.1 13.6 N 15.2 0.8 1.8
07:17 2.7 2.6 99 982.1 13.0 N 15.2 1.5 1.9
07:18 2.7 2.6 99 982.2 9.8 W 15.2 1.5 1.9
07:19 2.7 2.6 99 982.1 15.2 N 15.2 1.5 1.9
07:20 2.7 2.6 99 982.3 17.4 N 17.4 0.8 1.9
07:21 2.7 2.6 99 982.2 15.2 NE 17.4 0.8 1.9
07:22 2.7 2.6 99 982.4 10.7 NW 17.4 0.0 1.9
07:23 2.7 2.6 99 982.4 10.7 N 17.4 0.0 2.0
07:24 2.7 2.6 99 982.3 13.0 NE 17.4 0.8 2.0
07:26 2.7 2.6 99 982.5 8.3 NW 17.4 0.8 2.0
07:27 2.7 2.6 99 982.4 10.7 NW 17.4 0.8 2.0
07:28 2.7 2.6 99 982.4 20.6 N 20.6 0.8 2.0
07:29 2.7 2.6 99 982.4 16.8 N 20.6 0.0 2.0
07:30 2.7 2.6 99 982.4 13.6 NW 20.6 0.0 2.0
07:31 2.7 2.6 99 982.5 12.1 N 20.6 0.0 2.0
07:32 2.7 2.6 99 982.6 10.7 E 20.6 0.0 2.0
07:33 2.7 2.6 99 982.6 9.8 NE 20.6 0.0 2.0
07:34 2.7 2.6 99 982.7 17.4 WNW 20.6 0.0 2.0
07:35 2.7 2.6 99 982.7 13.0 NW 20.6 0.0 2.0
07:36 2.7 2.6 99 982.7 13.6 N 20.6 0.8 2.0
07:37 2.7 2.6 99 982.7 12.1 NE 20.6 0.8 2.0
07:38 2.8 2.7 99 982.9 9.8 S 17.4 0.8 2.0
07:39 2.7 2.6 99 983.0 19.7 N 19.7 0.8 2.0
07:40 2.8 2.7 99 983.0 13.0 N 19.7 0.8 2.0
07:41 2.8 2.7 99 983.1 10.7 NW 19.7 0.0 2.0
07:42 2.8 2.7 99 983.0 7.6 N 19.7 0.0 2.0
07:43 2.8 2.7 99 983.2 19.0 W 19.7 0.0 2.0
07:44 2.8 2.7 99 983.3 16.8 N 19.7 0.0 2.0
07:45 2.8 2.7 99 983.2 20.6 NW 20.6 0.0 2.0
07:46 2.8 2.7 99 983.2 13.6 NW 20.6 0.0 2.0
07:47 2.8 2.7 99 983.2 13.0 S 20.6 0.0 2.0
07:48 2.8 2.7 99 983.4 7.6 NW 20.6 0.0 2.0
07:49 2.8 2.7 99 983.2 14.5 NE 20.6 0.0 2.0
07:50 2.8 2.7 99 983.2 8.3 N 20.6 0.0 2.0
07:51 2.9 2.8 99 983.4 13.6 N 20.6 0.0 2.0
07:52 2.7 2.6 99 983.5 7.6 N 20.6 0.0 2.0
07:53 2.8 2.7 99 983.4 15.9 NE 20.6 0.0 2.0
07:54 2.9 2.8 99 983.4 13.6 E 20.6 0.0 2.0
07:55 2.9 2.8 99 983.5 13.0 N 20.6 0.8 2.1
07:56 2.9 2.8 99 983.6 13.0 N 15.9 0.8 2.1
07:57 2.9 2.8 99 983.6 9.8 N 15.9 0.8 2.1
07:59 2.9 2.8 99 983.6 13.0 NW 17.4 0.8 2.1
08:00 2.9 2.8 99 983.7 13.0 NW 17.4 0.0 2.1
08:01 2.9 2.8 99 983.8 13.0 NW 17.4 0.0 2.1
08:02 2.9 2.8 99 983.8 13.0 NW 17.4 0.0 2.1
08:03 2.9 2.8 99 983.8 13.0 NW 17.4 0.0 2.1
08:04 2.9 2.8 99 983.9 13.0 NW 17.4 0.0 2.1
08:05 2.9 2.8 99 983.8 14.5 N 17.4 0.0 2.1
08:07 2.9 2.8 99 984.0 8.3 N 17.4 0.0 2.1
08:08 3.0 2.9 99 984.0 11.4 NW 17.4 0.0 2.1
08:10 3.0 2.9 99 984.0 14.5 N 16.8 0.0 2.1
08:11 3.0 2.9 99 984.1 10.7 N 16.8 0.0 2.1
08:12 3.0 2.9 99 984.2 10.7 NW 16.8 0.0 2.1
08:13 3.0 2.9 99 984.0 13.0 N 16.8 0.0 2.1
08:14 3.0 2.9 99 984.2 12.1 N 16.8 0.0 2.1
08:15 2.8 2.7 99 984.2 12.1 NE 16.8 0.8 2.1
08:16 3.0 2.9 99 984.3 10.7 N 15.9 0.8 2.1
08:17 3.0 2.9 99 984.2 14.5 NW 15.9 0.8 2.1
08:18 3.0 2.9 99 984.2 9.2 NW 15.9 0.8 2.1
08:19 3.0 2.9 99 984.4 11.4 NE 14.5 0.8 2.1
08:20 3.0 2.9 99 984.3 11.4 NE 14.5 0.0 2.1
08:21 3.0 2.9 99 984.5 7.6 NE 14.5 0.0 2.1
08:22 3.0 2.9 99 984.3 22.8 NE 22.8 0.0 2.1
08:23 3.0 2.9 99 984.4 9.8 N 22.8 0.0 2.1
08:24 3.0 2.9 99 984.5 18.3 NW 22.8 0.0 2.1
08:25 3.0 2.9 99 984.6 19.0 NW 22.8 0.0 2.1
08:26 3.0 2.9 99 984.5 11.4 N 22.8 0.0 2.1
08:27 3.0 2.9 99 984.5 17.4 NW 22.8 0.0 2.1
08:28 3.0 2.9 99 984.4 13.6 NW 22.8 0.0 2.1
08:29 3.0 2.9 99 984.6 9.2 NW 22.8 0.0 2.1
08:30 3.0 2.9 99 984.7 10.7 NE 22.8 0.0 2.1
08:31 3.0 2.9 99 984.6 16.8 N 22.8 0.0 2.1
08:32 3.0 2.9 99 984.7 12.1 N 19.0 0.0 2.1
08:33 3.0 2.9 99 984.7 10.7 NW 19.0 0.0 2.1
08:34 3.0 2.9 99 984.7 14.5 NW 19.0 0.0 2.1
08:35 3.0 2.9 99 984.8 9.8 SE 17.4 0.0 2.1
08:36 3.0 2.9 99 984.7 17.4 SE 17.4 0.0 2.1
08:37 3.0 2.9 99 984.9 11.4 N 17.4 0.0 2.1
08:38 3.0 2.9 99 984.9 13.0 NW 17.4 0.0 2.1
08:39 3.0 2.9 99 985.0 15.2 NE 17.4 0.0 2.1
08:40 3.0 2.9 99 985.0 6.9 N 17.4 0.0 2.1
08:41 3.1 3.0 99 985.0 10.7 NW 17.4 0.0 2.1
08:42 3.1 3.0 99 985.1 20.6 NW 20.6 0.0 2.1
08:43 3.0 2.9 99 985.2 17.4 N 20.6 0.0 2.1
08:44 3.1 3.0 99 985.2 15.2 N 20.6 0.0 2.2
08:45 3.0 2.9 99 985.0 13.6 NW 20.6 0.8 2.2
08:46 3.1 3.0 99 985.2 11.4 N 20.6 0.8 2.2
08:47 3.1 3.0 99 985.1 6.9 N 20.6 0.8 2.2
08:48 3.1 3.0 99 985.2 11.4 E 20.6 0.8 2.2
08:49 3.1 3.0 99 985.3 8.3 W 20.6 0.8 2.2
08:50 3.1 3.0 99 985.3 5.4 N 20.6 0.0 2.2
08:51 3.1 3.0 99 985.4 13.6 N 20.6 0.0 2.2
08:52 3.1 3.0 99 985.4 7.6 N 17.4 0.0 2.2
08:53 3.1 3.0 99 985.5 9.2 N 17.4 0.0 2.2
08:54 3.1 3.0 99 985.4 10.7 N 15.2 0.0 2.2
08:55 3.1 3.0 99 985.4 9.8 NW 14.5 0.0 2.2
08:56 3.1 3.0 99 985.4 9.2 NW 14.5 0.0 2.2
08:57 3.1 3.0 99 985.5 17.4 NW 17.4 0.0 2.2
08:58 3.1 3.0 99 985.6 13.6 N 17.4 0.0 2.2
08:59 3.1 3.0 99 985.5 13.6 N 17.4 0.0 2.2
09:00 3.1 3.0 99 985.6 13.6 N 17.4 0.0 2.2
09:01 3.1 3.0 99 985.6 13.6 N 17.4 0.0 2.2
09:02 3.1 3.0 99 985.6 13.6 N 17.4 0.0 2.2
09:03 3.1 3.0 99 985.7 13.6 N 17.4 0.0 2.2
09:04 3.1 3.0 99 985.7 13.6 N 17.4 0.0 2.2
09:05 3.2 3.1 99 985.8 11.4 NW 17.4 0.0 2.2
09:07 3.2 3.1 99 985.6 6.0 N 17.4 0.0 2.2
09:08 3.2 3.1 99 985.8 11.4 NE 13.6 0.0 2.2
09:10 3.0 2.9 99 985.8 12.1 N 16.8 0.0 2.2
09:11 3.2 3.1 99 985.9 9.2 N 16.8 0.0 2.2
09:12 3.2 3.1 99 985.9 12.1 NW 16.8 0.0 2.2
09:13 3.2 3.1 99 985.9 10.7 N 16.8 0.0 2.2
09:14 3.2 3.1 99 986.0 13.6 N 16.8 0.0 2.2
09:15 3.2 3.1 99 985.8 9.2 NE 16.8 0.0 2.2
09:16 3.2 3.1 99 985.8 11.4 N 16.8 0.0 2.2
09:17 3.2 3.1 99 986.1 11.4 N 16.8 0.0 2.2
09:19 3.2 3.1 99 986.1 9.2 NW 16.8 0.0 2.2
09:20 3.2 3.1 99 986.2 19.7 NW 19.7 0.0 2.2
09:22 3.2 3.1 99 986.1 13.6 NW 19.7 0.0 2.2
09:23 3.2 3.1 99 986.0 13.6 N 19.7 0.0 2.2
09:24 3.2 3.1 99 986.0 13.6 N 19.7 0.0 2.2
09:25 3.2 3.1 99 986.2 13.0 N 19.7 0.0 2.2
09:26 3.2 3.1 99 986.2 13.6 N 19.7 0.0 2.3
09:27 3.2 3.1 99 986.1 13.6 NE 19.7 0.8 2.3
09:28 3.2 3.1 99 986.3 8.3 NW 19.7 0.8 2.3
09:29 3.2 3.1 99 986.2 19.7 NW 19.7 0.8 2.3
09:30 3.2 3.1 99 986.2 17.4 N 19.7 0.8 2.3
09:31 3.2 3.1 99 986.3 15.9 WNW 19.7 0.8 2.3
09:32 3.3 3.2 99 986.4 11.4 NW 19.7 0.0 2.3
09:33 3.2 3.1 99 986.4 11.4 N 19.7 0.0 2.3
09:34 3.3 3.2 99 986.4 17.4 N 19.7 0.0 2.3
09:35 3.3 3.2 99 986.5 16.8 WNW 19.7 0.0 2.3
09:36 3.3 3.2 99 986.5 11.4 N 19.7 0.0 2.3
09:37 3.3 3.2 99 986.6 9.2 N 19.7 0.0 2.3
09:38 3.3 3.2 99 986.6 14.5 NW 19.7 0.0 2.3
09:39 3.3 3.2 99 986.6 14.5 NW 19.7 0.0 2.3
09:40 3.3 3.2 99 986.6 11.4 N 17.4 0.0 2.3
09:41 3.3 3.2 99 986.7 13.6 NW 17.4 0.0 2.3
09:42 3.3 3.2 99 986.6 10.7 NW 17.4 0.0 2.3
09:43 3.3 3.2 99 986.8 10.7 N 17.4 0.0 2.3
09:44 3.4 3.3 99 986.8 15.2 N 17.4 0.0 2.3
09:45 3.4 3.3 99 986.8 12.1 N 17.4 0.0 2.3
09:46 3.4 3.3 99 986.8 7.6 N 17.4 0.0 2.3
09:47 3.4 3.3 99 986.8 9.2 NW 17.4 0.0 2.3
09:48 3.4 3.3 99 986.9 7.6 NW 17.4 0.0 2.3
09:49 3.4 3.3 99 986.8 13.0 NNE 17.4 0.0 2.3
09:50 3.4 3.3 99 986.9 8.3 NW 17.4 0.0 2.3
09:52 3.4 3.3 99 986.8 15.2 N 17.4 0.0 2.3
09:53 3.4 3.3 99 987.0 10.7 N 18.3 0.0 2.3
09:54 3.5 3.4 99 986.9 13.6 NW 18.3 0.0 2.3
09:55 3.4 3.3 99 986.9 11.4 NW 18.3 0.0 2.3
09:56 3.5 3.4 99 986.9 10.7 N 18.3 0.0 2.3
09:57 3.5 3.4 99 987.0 9.2 NW 18.3 0.0 2.3
09:58 3.5 3.4 99 987.0 9.8 N 18.3 0.0 2.3
09:59 3.5 3.4 99 987.2 17.4 NW 18.3 0.0 2.3
10:00 3.5 3.4 99 987.1 17.4 N 18.3 0.0 2.3
10:01 3.5 3.4 99 987.2 17.4 N 18.3 0.0 2.3
10:02 3.5 3.4 99 987.2 17.4 N 18.3 0.0 2.3
10:03 3.5 3.4 99 987.2 17.4 N 17.4 0.0 2.3
10:04 3.5 3.4 99 987.2 17.4 N 17.4 0.0 2.3
10:05 3.6 3.5 99 987.3 15.9 WNW 17.4 0.0 2.3
10:06 3.6 3.5 99 987.2 12.1 NW 17.4 0.0 2.3
10:08 3.6 3.5 99 987.3 11.4 NW 17.4 0.0 2.3
10:09 3.6 3.5 99 987.4 18.3 N 18.3 0.0 2.3
10:10 3.6 3.5 99 987.4 19.7 N 19.7 0.0 2.3
10:12 3.6 3.5 99 987.4 16.8 N 19.7 0.0 2.3
10:13 3.6 3.5 99 987.7 12.1 N 19.7 0.0 2.3
10:14 3.7 3.6 99 987.6 15.2 W 19.7 0.0 2.3
10:15 3.7 3.6 99 987.7 15.9 N 19.7 0.0 2.3
10:16 3.7 3.6 99 987.7 13.6 W 19.7 0.0 2.3
10:17 3.7 3.6 99 987.7 15.9 NE 19.7 0.0 2.3
10:18 3.7 3.6 99 987.9 14.5 NW 19.7 0.0 2.3
10:19 3.7 3.6 99 987.8 11.4 N 19.7 0.0 2.3
10:20 3.7 3.6 99 987.7 19.0 N 19.0 0.0 2.3
10:21 3.7 3.6 99 987.9 14.5 N 19.0 0.0 2.3
10:22 3.7 3.6 99 987.9 13.6 NW 19.0 0.0 2.3
10:23 3.8 3.7 99 988.0 10.7 N 19.0 0.0 2.3
10:24 3.7 3.6 99 988.0 15.2 NW 19.0 0.0 2.3
10:25 3.7 3.6 99 988.1 8.3 N 19.0 0.0 2.3
10:26 3.8 3.7 99 988.2 10.7 N 19.0 0.0 2.3
10:27 3.8 3.7 99 988.2 10.7 NE 19.0 0.0 2.3
10:28 3.8 3.7 99 988.2 22.1 NW 22.1 0.0 2.3
10:29 3.8 3.7 99 988.0 13.6 NW 22.1 0.0 2.3
10:30 3.8 3.7 99 988.3 13.6 N 22.1 0.0 2.3
10:32 3.8 3.7 99 988.3 11.4 NW 22.1 0.0 2.3
10:33 3.8 3.7 99 988.3 13.0 NW 22.1 0.0 2.3
10:34 3.8 3.7 99 988.4 13.6 WNW 22.1 0.0 2.3
10:35 3.8 3.7 99 988.3 15.9 N 22.1 0.0 2.3
10:36 3.9 3.8 99 988.3 9.8 N 22.1 0.0 2.3
10:37 3.9 3.8 99 988.4 15.9 NE 22.1 0.0 2.3
10:38 3.9 3.8 99 988.6 13.0 NW 22.1 0.0 2.3
10:39 3.9 3.8 99 988.6 13.0 NE 16.8 0.0 2.3
10:40 3.9 3.8 99 988.6 12.1 N 16.8 0.0 2.3
10:41 3.9 3.8 99 988.7 9.8 N 16.8 0.0 2.3
10:42 3.9 3.8 99 988.6 11.4 N 16.8 0.0 2.3
10:43 4.0 3.9 99 988.7 12.1 N 16.8 0.0 2.3
10:45 3.9 3.8 99 988.9 15.9 NW 16.8 0.0 2.3
10:46 3.9 3.8 99 988.6 12.1 NW 16.8 0.0 2.3
10:47 4.0 3.9 99 988.9 10.7 NW 16.8 0.0 2.3
10:48 4.0 3.9 99 988.8 13.0 W 16.8 0.0 2.3
10:49 4.0 3.9 99 988.8 13.6 NE 16.8 0.0 2.3
10:50 3.9 3.8 99 988.9 18.3 NW 18.3 0.0 2.3
10:51 4.0 3.9 99 989.0 7.6 NW 18.3 0.0 2.3
10:52 4.0 3.9 99 989.0 9.8 N 18.3 0.0 2.3
10:53 4.0 3.9 99 988.9 10.7 N 18.3 0.0 2.3
10:54 4.0 3.9 99 989.2 11.4 N 18.3 0.0 2.3
10:55 4.0 3.9 99 989.1 4.5 N 18.3 0.0 2.3
10:56 4.0 3.9 99 989.0 15.9 NW 18.3 0.0 2.3
10:57 4.0 3.9 99 988.9 14.5 NW 18.3 0.0 2.3
10:58 4.0 3.9 99 989.0 15.9 NW 18.3 0.0 2.3
10:59 4.0 3.9 99 989.0 11.4 NW 18.3 0.0 2.3
11:00 4.0 3.9 99 989.1 9.8 NW 16.8 0.0 2.3
11:01 4.0 3.9 99 989.0 9.8 NW 16.8 0.0 2.3
11:02 4.0 3.9 99 988.9 13.6 N 16.8 0.0 2.3
11:03 4.0 3.9 99 988.9 13.6 N 16.8 0.0 2.3
11:04 4.0 3.9 99 989.0 9.8 N 16.8 0.0 2.3
11:05 4.0 3.9 99 989.0 9.8 N 16.8 0.0 2.3
11:06 4.0 3.9 99 989.0 14.5 NW 16.8 0.0 2.3
11:08 4.0 3.9 99 989.1 9.2 N 16.8 0.0 2.3
11:09 4.0 3.9 99 989.1 13.6 N 14.5 0.0 2.3
11:11 4.1 4.0 99 989.2 13.0 N 14.5 0.0 2.3
11:12 4.0 3.9 99 989.2 6.9 NE 14.5 0.0 2.3
11:13 4.1 4.0 99 989.1 15.9 NE 15.9 0.0 2.3
11:14 4.1 4.0 99 989.2 9.8 N 15.9 0.0 2.3
11:15 4.1 4.0 99 989.3 12.1 N 15.9 0.0 2.3
11:16 4.1 4.0 99 989.4 12.1 NW 15.9 0.0 2.3
11:17 4.1 4.0 99 989.3 10.7 N 15.9 0.0 2.3
11:18 4.1 4.0 99 989.3 11.4 N 15.9 0.0 2.3
11:19 4.1 4.0 99 989.3 10.7 N 15.9 0.0 2.3
11:20 4.2 4.1 99 989.2 12.1 N 15.9 0.0 2.3
11:21 4.2 4.1 99 989.3 8.3 N 15.9 0.0 2.3
11:23 4.3 4.2 99 989.3 8.3 NE 15.9 0.0 2.3
11:24 4.4 4.3 99 989.4 10.7 NW 13.0 0.0 2.3
11:25 4.4 4.3 99 989.4 10.7 NW 13.0 0.0 2.3
11:26 4.5 4.4 99 989.4 9.2 NW 13.0 0.0 2.3
11:27 4.7 4.6 99 989.5 8.3 NW 13.0 0.0 2.3
11:28 4.8 4.7 99 989.5 6.9 N 13.0 0.0 2.3
11:29 4.9 4.8 99 989.5 8.3 NW 13.0 0.0 2.3
11:30 5.0 4.9 99 989.5 8.3 NW 13.0 0.0 2.3
11:31 5.1 5.0 99 989.5 12.1 NE 12.1 0.0 2.3
11:32 5.1 5.0 99 989.7 10.7 N 12.1 0.0 2.3
11:33 5.1 5.0 99 989.6 13.0 NW 13.0 0.0 2.3
11:34 5.1 5.0 99 989.7 10.7 N 13.0 0.0 2.3
11:35 5.1 5.0 99 989.5 11.4 N 13.0 0.0 2.3
11:36 5.1 5.0 99 989.6 10.7 WNW 13.0 0.0 2.3
11:37 5.1 5.0 99 989.8 10.7 NW 13.0 0.0 2.3
11:38 5.1 4.8 98 989.7 12.1 WNW 13.0 0.0 2.3
11:39 5.0 4.7 98 989.7 13.6 WNW 13.6 0.0 2.3
11:40 5.0 4.4 96 989.8 15.2 NW 15.2 0.0 2.3
11:41 5.0 4.3 95 989.7 16.8 N 20.6 0.0 2.3
11:42 5.0 4.3 95 989.8 8.3 NW 20.6 0.0 2.3
11:43 5.1 4.4 95 989.8 8.3 N 20.6 0.0 2.3
11:44 5.1 4.4 95 989.8 9.8 NE 20.6 0.0 2.3
11:45 5.2 4.5 95 989.8 6.9 NW 20.6 0.0 2.3
11:46 5.2 4.6 96 989.7 8.3 NE 20.6 0.0 2.3
11:47 5.2 4.6 96 989.8 9.2 N 20.6 0.0 2.3
11:48 5.3 4.6 95 989.9 9.2 NW 20.6 0.0 2.3
11:49 5.3 4.4 94 989.9 14.5 NE 20.6 0.0 2.3
11:50 5.3 4.4 94 990.0 8.3 N 20.6 0.0 2.3
11:51 5.3 4.4 94 990.1 12.1 N 16.8 0.0 2.3
11:52 5.4 4.5 94 990.1 13.0 N 14.5 0.0 2.3
11:53 5.4 4.5 94 990.1 8.3 NE 14.5 0.0 2.3
11:54 5.4 4.4 93 990.1 11.4 NW 14.5 0.0 2.3
11:55 5.3 4.3 93 990.0 7.6 N 14.5 0.0 2.3
11:57 5.4 4.2 92 990.2 12.1 N 14.5 0.0 2.3
11:58 5.4 4.2 92 990.2 8.3 W 14.5 0.0 2.3
11:59 5.4 4.2 92 990.2 9.2 W 14.5 0.0 2.3
12:00 5.4 4.1 91 990.2 13.6 W 16.8 0.0 2.3
12:01 5.4 4.1 91 990.5 13.6 W 16.8 0.0 2.3
12:02 5.4 4.1 91 990.3 9.8 NW 16.8 0.0 2.3
12:03 5.5 4.1 91 990.2 11.4 NW 16.8 0.0 2.3
12:04 5.5 4.1 91 990.2 9.8 NW 16.8 0.0 2.3
12:05 5.5 4.1 91 990.3 15.9 NW 16.8 0.0 2.3
12:06 5.6 4.2 91 990.3 12.1 N 16.8 0.0 2.3
12:08 5.6 4.1 90 990.3 8.3 N 16.8 0.0 2.3
12:09 5.6 4.1 90 990.3 10.7 NW 15.9 0.0 2.3
12:11 5.7 4.0 89 990.3 12.1 NW 15.9 0.0 2.3
12:12 5.7 4.0 89 990.3 6.0 NE 15.9 0.0 2.3
12:13 5.8 4.1 89 990.5 9.2 NE 15.9 0.0 2.3
12:14 5.8 4.1 89 990.4 8.3 NW 15.9 0.0 2.3
12:15 5.9 4.1 88 990.4 15.9 NW 15.9 0.0 2.3
12:16 5.9 3.9 87 990.4 13.0 NW 18.3 0.0 2.3
12:17 5.9 3.9 87 990.6 10.7 NW 18.3 0.0 2.3
12:18 5.9 3.9 87 990.5 9.8 N 18.3 0.0 2.3
12:19 5.9 3.9 87 990.7 13.0 N 18.3 0.0 2.3
12:20 6.0 4.0 87 990.5 9.8 N 18.3 0.0 2.3
12:22 6.0 4.0 87 990.7 11.4 N 18.3 0.0 2.3
12:23 6.0 4.0 87 990.7 13.0 NE 18.3 0.0 2.3
12:24 6.1 4.1 87 990.6 16.8 NE 18.3 0.0 2.3
12:25 6.1 3.9 86 990.7 13.6 NE 18.3 0.0 2.3
12:26 6.1 3.9 86 990.6 10.7 N 18.3 0.0 2.3
12:27 6.1 3.9 86 990.6 13.0 NW 16.8 0.0 2.3
12:28 6.1 3.9 86 990.7 13.0 NW 16.8 0.0 2.3
12:29 6.1 3.9 86 990.7 9.8 NW 16.8 0.0 2.3
12:30 6.1 3.9 86 990.8 9.8 N 16.8 0.0 2.3
12:31 6.1 3.9 86 990.7 17.4 NW 17.4 0.0 2.3
12:32 6.1 3.9 86 990.9 13.6 NW 17.4 0.0 2.3
12:33 6.1 3.9 86 990.9 11.4 N 17.4 0.0 2.3
12:34 6.1 3.9 86 990.9 15.9 NW 17.4 0.0 2.3
12:35 6.1 3.8 85 990.8 15.2 NW 19.7 0.0 2.3
12:36 6.1 3.6 84 991.1 18.3 NE 19.7 0.0 2.3
12:37 6.1 3.6 84 990.9 11.4 N 19.7 0.0 2.3
12:38 6.1 3.6 84 990.9 13.0 NE 19.7 0.0 2.3
12:39 6.1 3.6 84 991.0 10.7 WNW 19.7 0.0 2.3
12:40 6.1 3.4 83 990.9 13.6 NW 19.7 0.0 2.3
12:41 6.1 3.6 84 990.9 13.6 NW 19.7 0.0 2.3
12:42 6.1 3.6 84 991.0 13.0 NW 19.7 0.0 2.3
12:43 6.2 3.7 84 991.0 13.0 NW 19.7 0.0 2.3
12:44 6.2 3.7 84 991.2 20.6 N 21.3 0.0 2.3
12:45 6.2 3.5 83 991.0 9.8 NW 21.3 0.0 2.3
12:46 6.2 3.7 84 991.1 10.7 W 21.3 0.0 2.3
12:48 6.2 3.7 84 991.1 14.5 N 21.3 0.0 2.3
12:49 6.2 3.7 84 991.2 9.8 N 21.3 0.0 2.3
12:50 6.2 3.7 84 991.2 12.1 NW 21.3 0.0 2.3
12:51 6.2 3.5 83 991.3 8.3 WNW 21.3 0.0 2.3
12:52 6.3 3.6 83 991.2 11.4 W 21.3 0.0 2.3
12:53 6.3 3.6 83 991.2 17.4 NW 21.3 0.0 2.3
12:54 6.3 3.6 83 991.5 8.3 NW 21.3 0.0 2.3
12:55 6.3 3.6 83 991.4 9.2 NW 17.4 0.0 2.3
12:56 6.3 3.6 83 991.4 13.0 N 17.4 0.0 2.3
12:57 6.3 3.6 83 991.4 13.0 SE 17.4 0.0 2.3
12:58 6.4 3.6 82 991.4 10.7 N 17.4 0.0 2.3
12:59 6.4 3.6 82 991.4 10.7 N 17.4 0.0 2.3
13:00 6.4 3.6 82 991.5 22.1 W 22.1 0.0 2.3
13:01 6.4 3.6 82 991.4 22.1 W 22.1 0.0 2.3
13:02 6.4 3.6 82 991.6 9.8 NW 22.1 0.0 2.3
13:03 6.4 3.4 81 991.6 13.0 N 22.1 0.0 2.3
13:04 6.3 3.3 81 991.6 12.1 NE 22.1 0.0 2.3
13:05 6.4 3.4 81 991.5 15.9 NW 22.1 0.0 2.3
13:06 6.4 3.4 81 991.6 8.3 N 22.1 0.0 2.3
13:08 6.4 3.6 82 991.6 12.1 N 22.1 0.0 2.3
13:10 6.4 3.4 81 991.6 10.7 NW 22.1 0.0 2.3
13:11 6.4 3.6 82 991.6 15.2 NW 15.9 0.0 2.3
13:13 6.4 3.4 81 991.8 12.1 NW 15.9 0.0 2.3
13:14 6.4 3.4 81 991.7 11.4 N 15.9 0.0 2.3
13:15 6.4 3.4 81 991.7 11.4 N 15.9 0.0 2.3
13:16 6.5 3.5 81 991.7 9.2 NW 15.2 0.0 2.3
13:17 6.5 3.5 81 991.8 12.1 NW 15.2 0.0 2.3
13:18 6.5 3.5 81 991.7 9.8 N 15.2 0.0 2.3
13:19 6.5 3.5 81 991.7 9.8 N 15.2 0.0 2.3
13:20 6.5 3.5 81 991.9 7.6 NW 15.2 0.0 2.3
13:21 6.6 3.6 81 991.7 10.7 N 15.2 0.0 2.3
13:22 6.6 3.6 81 991.9 12.1 NW 12.1 0.0 2.3
13:23 6.6 3.6 81 991.9 9.8 NW 12.1 0.0 2.3
13:24 6.6 3.6 81 991.9 10.7 NW 12.1 0.0 2.3
13:25 6.6 3.6 81 991.8 10.7 NW 12.1 0.0 2.3
13:26 6.6 3.6 81 991.8 9.2 N 12.1 0.0 2.3
13:27 6.6 3.6 81 991.7 15.2 WNW 15.2 0.0 2.3
13:28 6.6 3.2 79 991.9 11.4 NW 15.2 0.0 2.3
13:29 6.6 3.2 79 991.8 15.9 NW 15.9 0.0 2.3
13:30 6.6 3.2 79 991.9 13.0 W 15.9 0.0 2.3
13:31 6.6 3.2 79 992.0 12.1 N 15.9 0.0 2.3
13:32 6.6 3.0 78 992.0 22.8 NW 22.8 0.0 2.3
13:33 6.5 2.8 77 992.1 15.9 NW 22.8 0.0 2.3
13:34 6.5 2.8 77 991.8 14.5 NW 22.8 0.0 2.3
13:36 6.5 2.8 77 992.1 11.4 N 22.8 0.0 2.3
13:37 6.5 2.8 77 992.0 10.7 W 22.8 0.0 2.3
13:38 6.5 2.8 77 992.1 9.8 NW 22.8 0.0 2.3
13:39 6.5 2.8 77 992.1 9.8 NW 22.8 0.0 2.3
13:40 6.5 2.8 77 992.0 6.9 N 22.8 0.0 2.3
13:41 6.5 2.8 77 992.1 8.3 N 22.8 0.0 2.3
13:42 6.6 2.9 77 992.2 8.3 W 22.8 0.0 2.9
13:43 6.6 2.9 77 992.2 9.8 N 15.9 7.5 3.0
13:44 6.6 2.9 77 992.3 11.4 N 14.5 9.1 3.0
13:45 6.6 2.9 77 992.2 11.4 S 11.4 9.1 3.0
13:46 6.6 2.7 76 992.1 9.8 NW 11.4 9.1 3.0
13:47 6.6 2.9 77 992.2 6.9 N 11.4 9.1 3.0
13:48 6.6 2.7 76 992.4 10.7 SE 12.1 1.5 3.0
13:49 6.6 2.7 76 992.2 11.4 N 12.1 0.0 3.0
13:50 6.6 2.7 76 992.3 13.6 NE 13.6 0.0 3.0
13:52 6.6 2.9 77 992.4 8.3 N 13.6 0.0 3.0
13:53 6.6 2.9 77 992.2 7.6 NW 13.6 0.0 3.0
13:54 6.6 2.9 77 992.3 6.0 N 13.6 0.0 3.0
13:55 6.7 3.0 77 992.3 13.0 NW 13.6 0.0 3.0
13:56 6.7 3.0 77 992.3 11.4 NW 13.6 0.0 3.0
13:57 6.7 3.0 77 992.5 10.7 NW 13.6 0.0 3.0
13:58 6.7 3.0 77 992.4 12.1 NW 13.6 0.0 3.0
13:59 6.7 3.0 77 992.4 12.1 NW 13.6 0.0 3.0
14:00 6.7 3.0 77 992.4 9.8 NW 13.6 0.0 3.0
14:01 6.7 3.0 77 992.4 9.8 NW 13.0 0.0 3.0
14:02 6.7 3.0 77 992.5 9.8 NW 13.0 0.0 3.0
14:03 6.7 3.0 77 992.5 9.8 NW 13.0 0.0 3.0
14:04 6.7 3.0 77 992.5 9.8 NW 13.0 0.0 3.0
14:05 6.8 3.2 78 992.5 9.2 W 12.1 0.0 3.0
14:06 6.8 3.2 78 992.5 17.4 W 17.4 0.0 3.0
14:08 6.8 3.2 78 992.5 12.1 NW 17.4 0.0 3.0
14:09 6.8 3.2 78 992.7 9.8 WNW 17.4 0.0 3.0
14:11 6.8 3.2 78 992.6 9.2 N 17.4 0.0 3.0
14:12 6.9 3.3 78 992.7 9.2 N 17.4 0.0 3.0
14:13 6.8 3.2 78 992.5 13.0 N 17.4 0.0 3.0
14:14 6.9 3.3 78 992.7 12.1 NW 17.4 0.0 3.0
14:15 6.9 3.3 78 992.7 10.7 NW 17.4 0.0 3.0
14:16 6.9 3.5 79 992.7 13.0 NW 17.4 0.0 3.0
14:17 6.9 3.5 79 992.5 6.9 NW 13.0 0.0 3.0
14:18 6.9 3.5 79 992.7 8.3 NW 13.0 0.0 3.0
14:19 6.9 3.5 79 992.6 2.2 NW 13.0 0.0 3.0
14:20 6.9 3.5 79 992.7 6.9 N 13.0 0.0 3.0
14:21 6.9 3.5 79 992.8 8.3 NW 13.0 0.0 3.0
14:22 6.9 3.5 79 992.6 10.7 NE 13.0 0.0 3.0
14:24 6.9 3.5 79 992.6 7.6 N 13.0 0.0 3.0
14:25 6.9 3.5 79 992.6 6.9 W 13.0 0.0 3.0
14:26 7.0 3.8 80 992.7 4.5 NE 13.0 0.0 3.0
14:27 7.0 3.8 80 992.7 4.5 N 13.0 0.0 3.0
14:28 7.0 3.8 80 992.7 6.9 NW 11.4 0.0 3.0
14:29 7.0 3.8 80 992.7 9.2 N 11.4 0.0 3.0
14:30 7.0 3.8 80 992.9 6.0 NW 11.4 0.0 3.0
14:31 7.1 3.9 80 992.8 8.3 N 11.4 0.0 3.0
14:32 7.1 3.9 80 992.7 13.0 N 13.0 0.0 3.0
14:33 7.1 3.9 80 992.8 10.7 NW 13.0 0.0 3.0
14:34 7.1 3.9 80 992.9 7.6 N 13.0 0.0 3.0
14:35 7.1 3.9 80 992.8 14.5 NW 15.2 0.0 3.0
14:36 7.1 3.9 80 992.9 9.2 WNW 15.2 0.0 3.0
14:37 7.1 3.9 80 992.8 10.7 NW 15.2 0.0 3.0
14:38 7.1 3.9 80 992.9 7.6 N 15.2 0.0 3.0
14:39 7.1 3.9 80 992.9 10.7 N 15.2 0.0 3.0
14:40 7.1 3.9 80 993.0 10.7 SE 15.2 0.0 3.0
14:41 7.1 3.9 80 992.9 8.3 NW 15.2 0.0 3.0
14:42 7.1 3.9 80 993.1 9.8 NW 15.2 0.0 3.0
14:43 7.1 3.9 80 993.1 9.2 NW 15.2 0.0 3.0
14:44 7.1 3.9 80 993.1 9.2 NW 15.2 0.0 3.0
14:45 7.1 3.9 80 993.2 12.1 NE 14.5 0.0 3.0
14:46 7.1 3.9 80 993.0 12.1 N 12.1 0.0 3.0
14:47 7.0 3.8 80 993.2 8.3 N 12.1 0.0 3.0
14:48 7.0 3.8 80 993.2 12.1 NW 12.1 0.0 3.0
14:49 7.1 4.1 81 993.2 8.3 NW 12.1 0.0 3.0
14:50 7.1 4.1 81 993.3 8.3 NW 12.1 0.0 3.0
14:51 7.0 4.0 81 993.3 9.8 N 12.1 0.0 3.0
14:52 7.0 4.0 81 993.3 9.2 N 12.1 0.0 3.0
14:53 7.0 4.0 81 993.3 6.0 NW 12.1 0.0 3.0
14:54 6.9 3.9 81 993.3 6.9 NW 12.1 0.0 3.0
14:55 6.9 3.9 81 993.4 6.0 NW 12.1 0.0 3.0
14:56 6.8 3.8 81 993.4 6.9 NW 12.1 0.0 3.0
14:57 6.7 3.7 81 993.4 9.2 NW 12.1 0.0 3.0
14:58 6.7 3.7 81 993.4 10.7 N 10.7 0.0 3.0
14:59 6.7 3.7 81 993.6 10.7 NW 10.7 0.0 3.0
15:00 6.6 3.6 81 993.5 9.2 NW 10.7 0.0 3.0
15:01 6.6 3.6 81 993.5 9.2 NW 10.7 0.0 3.0
15:02 6.6 3.6 81 993.6 9.2 NW 10.7 0.0 3.0
15:03 6.6 3.6 81 993.4 9.2 NW 10.7 0.0 3.0
15:05 6.6 3.6 81 993.6 9.2 NW 10.7 0.0 3.0
15:06 6.4 3.6 82 993.6 9.2 W 10.7 0.0 3.0
15:07 6.3 3.5 82 993.7 11.4 NW 11.4 0.0 3.0
15:09 6.2 3.4 82 993.7 9.8 W 13.0 0.0 3.0
15:10 6.1 3.3 82 993.6 4.5 NW 13.0 0.0 3.0
15:12 6.0 3.2 82 993.7 8.3 W 13.0 0.0 3.0
15:13 6.0 3.2 82 993.5 4.5 NW 13.0 0.0 3.0
15:14 6.0 3.3 83 993.7 8.3 NW 13.0 0.0 3.0
15:15 5.9 3.2 83 993.6 10.7 NW 13.0 0.0 3.0
15:16 5.9 3.2 83 993.6 9.8 N 13.0 0.0 3.0
15:17 5.9 3.2 83 993.6 6.0 N 13.0 0.0 3.0
15:18 5.9 3.4 84 993.7 7.6 N 13.0 0.0 3.0
15:19 5.9 3.4 84 993.6 13.0 NW 13.0 0.0 3.0
15:20 5.9 3.4 84 993.8 8.3 N 13.0 0.0 3.0
15:21 5.9 3.4 84 993.7 8.3 NW 13.0 0.0 3.0
15:22 5.9 3.4 84 993.6 7.6 NW 13.0 0.0 3.0
15:23 5.9 3.4 84 993.8 10.7 NW 13.0 0.0 3.0
15:24 5.9 3.4 84 993.7 9.8 NW 13.6 0.0 3.0
15:25 5.9 3.4 84 993.9 12.1 N 13.6 0.0 3.0
15:26 5.9 3.4 84 993.7 8.3 N 13.6 0.0 3.0
15:27 6.0 3.5 84 993.9 9.8 NW 13.6 0.0 3.0
15:28 6.0 3.5 84 994.0 4.5 NW 14.5 0.0 3.0
15:29 6.0 3.5 84 993.9 9.8 NW 14.5 0.0 3.0
15:30 6.1 3.6 84 993.9 13.0 NW 14.5 0.0 3.0
15:31 6.1 3.6 84 993.9 9.2 NW 14.5 0.0 3.0
15:32 6.1 3.6 84 993.9 13.0 NW 14.5 0.0 3.0
15:34 6.1 3.8 85 994.0 6.0 NE 14.5 0.0 3.0
15:35 6.1 3.8 85 994.0 12.1 NW 14.5 0.0 3.0
15:36 6.1 3.8 85 994.1 6.9 N 14.5 0.0 3.0
15:37 6.1 3.8 85 994.1 6.9 NW 14.5 0.0 3.0
15:38 6.0 3.7 85 993.9 7.6 N 14.5 0.0 3.0
15:39 6.0 3.7 85 994.1 11.4 NW 13.0 0.0 3.0
15:40 5.9 3.6 85 994.0 9.8 NW 13.0 0.0 3.0
15:41 5.9 3.6 85 994.1 5.4 NW 13.0 0.0 3.0
15:42 5.8 3.5 85 994.1 10.7 NW 13.0 0.0 3.0
15:43 5.8 3.5 85 994.1 4.5 NW 12.1 0.0 3.0
15:44 5.7 3.5 86 994.2 6.9 N 12.1 0.0 3.0
15:45 5.7 3.5 86 994.1 6.9 N 12.1 0.0 3.0
15:46 5.7 3.5 86 994.2 5.4 NW 11.4 0.0 3.0
15:47 5.6 3.4 86 994.4 4.5 NW 11.4 0.0 3.0
15:48 5.5 3.3 86 994.3 5.4 NW 11.4 0.0 3.0
15:49 5.5 3.5 87 994.3 5.4 N 10.7 0.0 3.0
15:50 5.5 3.5 87 994.4 3.1 N 10.7 0.0 3.0
15:51 5.5 3.5 87 994.3 4.5 NE 10.7 0.0 3.0
15:52 5.4 3.4 87 994.2 2.2 NE 6.9 0.0 3.0
15:53 5.4 3.4 87 994.2 2.2 NE 6.9 0.0 3.0
15:54 5.4 3.4 87 994.2 3.8 NW 6.9 0.0 3.0
15:55 5.4 3.4 87 994.3 3.1 NW 5.4 0.0 3.0
15:56 5.3 3.3 87 994.3 2.2 NW 5.4 0.0 3.0
15:58 5.3 3.5 88 994.3 3.8 NW 5.4 0.0 3.0
15:59 5.3 3.5 88 994.3 3.1 NW 5.4 0.0 3.0
16:00 5.3 3.5 88 994.4 3.1 N 4.5 0.0 3.0
16:01 5.3 3.5 88 994.5 3.1 N 3.8 0.0 3.0
16:02 5.3 3.5 88 994.5 3.1 N 3.8 0.0 3.0
16:03 5.3 3.5 88 994.5 3.1 N 3.8 0.0 3.0
16:04 5.3 3.5 88 994.3 3.1 N 3.8 0.0 3.0
16:05 5.2 3.5 89 994.2 6.0 NW 6.0 0.0 3.0
16:06 5.2 3.5 89 994.5 3.8 NW 6.0 0.0 3.0
16:08 5.2 3.5 89 994.5 4.5 N 6.0 0.0 3.0
16:09 5.1 3.4 89 994.5 3.1 N 6.0 0.0 3.0
16:11 5.1 3.4 89 994.5 4.5 NW 6.0 0.0 3.0
16:12 5.1 3.4 89 994.6 2.2 NW 6.0 0.0 3.0
16:14 5.1 3.4 89 994.6 2.2 NW 6.0 0.0 3.0
16:15 5.0 3.3 89 994.5 1.6 NW 6.0 0.0 3.0
16:16 5.0 3.3 89 994.6 2.2 NW 4.5 0.0 3.0
16:17 5.0 3.3 89 994.5 3.1 NW 4.5 0.0 3.0
16:18 5.0 3.5 90 994.6 3.8 NW 4.5 0.0 3.0
16:19 5.0 3.5 90 994.6 3.8 NW 4.5 0.0 3.0
16:20 4.9 3.4 90 994.7 3.8 NW 5.4 0.0 3.0
16:21 4.9 3.4 90 994.6 5.4 NW 5.4 0.0 3.0
16:22 4.9 3.4 90 994.7 4.5 NW 5.4 0.0 3.0
16:23 4.9 3.4 90 994.6 4.5 NW 5.4 0.0 3.0
16:24 4.9 3.4 90 994.6 7.6 NW 7.6 0.0 3.0
16:25 4.9 3.4 90 994.7 6.9 NW 7.6 0.0 3.0
16:26 4.8 3.3 90 994.7 7.6 NW 9.8 0.0 3.0
16:27 4.8 3.3 90 994.7 9.8 NW 9.8 0.0 3.0
16:28 4.8 3.3 90 994.8 6.0 N 9.8 0.0 3.0
16:29 4.9 3.4 90 994.7 6.9 NW 9.8 0.0 3.0
16:30 4.9 3.4 90 994.8 5.4 NW 9.8 0.0 3.0
16:31 4.9 3.4 90 994.6 6.9 NW 9.8 0.0 3.0
16:32 4.9 3.4 90 994.7 5.4 SW 9.8 0.0 3.0
16:33 4.8 3.3 90 994.7 7.6 NW 9.8 0.0 3.0
16:34 4.9 3.4 90 994.7 9.2 NW 9.8 0.0 3.0
16:35 4.9 3.4 90 994.8 8.3 NW 9.8 0.0 3.0
16:37 4.9 3.4 90 994.7 6.0 S 9.8 0.0 3.0
16:38 4.9 3.4 90 994.9 10.7 N 10.7 0.0 3.0
16:39 4.9 3.4 90 994.9 10.7 N 10.7 0.0 3.0
16:40 4.9 3.4 90 994.9 8.3 NW 10.7 0.0 3.0
16:41 4.9 3.4 90 994.9 4.5 N 10.7 0.0 3.0
16:42 4.9 3.4 90 994.9 6.0 NW 10.7 0.0 3.0
16:43 4.9 3.4 90 995.0 5.4 NW 10.7 0.0 3.0
16:44 4.9 3.4 90 995.2 9.8 W 10.7 0.0 3.0
16:45 4.9 3.4 90 995.2 9.2 SW 10.7 0.0 3.0
16:46 4.9 3.4 90 995.1 6.9 N 10.7 0.0 3.0
16:47 4.9 3.4 90 995.0 7.6 NW 10.7 0.0 3.0
16:48 4.9 3.4 90 994.9 12.1 NW 12.1 0.0 3.0
16:49 4.9 3.4 90 995.0 7.6 N 12.1 0.0 3.0
16:50 4.9 3.4 90 995.2 8.3 N 12.1 0.0 3.0
16:51 4.9 3.4 90 995.0 6.9 NW 12.1 0.0 3.0
16:52 4.9 3.4 90 995.1 9.2 NW 12.1 0.0 3.0
16:53 4.9 3.4 90 995.1 9.8 N 12.1 0.0 3.0
16:54 4.9 3.4 90 995.1 12.1 NW 12.1 0.0 3.0
16:55 4.9 3.4 90 995.2 6.9 W 12.1 0.0 3.0
16:56 4.9 3.4 90 995.2 5.4 W 12.1 0.0 3.0
16:57 4.9 3.4 90 995.1 7.6 N 12.1 0.0 3.0
16:58 4.9 3.4 90 995.1 6.0 N 12.1 0.0 3.0
17:00 4.9 3.4 90 995.1 6.9 NW 12.1 0.0 3.0
17:01 4.9 3.4 90 995.2 6.9 NW 12.1 0.0 3.0
17:02 4.9 3.4 90 995.2 6.9 NW 12.1 0.0 3.0
17:03 4.9 3.4 90 995.3 6.9 NW 12.1 0.0 3.0
17:04 4.9 3.4 90 995.2 6.9 NW 12.1 0.0 3.0
17:05 4.9 3.4 90 995.4 10.7 W 10.7 0.0 3.0
17:07 5.0 3.5 90 995.2 10.7 W 10.7 0.0 3.0
17:08 5.0 3.5 90 995.3 9.8 W 10.7 0.0 3.0
17:10 5.0 3.5 90 995.2 9.8 N 10.7 0.0 3.0
17:11 5.0 3.5 90 995.2 9.8 N 10.7 0.0 3.0
17:13 5.1 3.6 90 995.3 7.6 NW 10.7 0.0 3.0
17:14 5.0 3.5 90 995.3 7.6 NW 10.7 0.0 3.0
17:15 5.0 3.7 91 995.3 7.6 N 10.7 0.0 3.0
17:16 5.0 3.7 91 995.4 7.6 NW 10.7 0.0 3.0
17:17 5.0 3.5 90 995.5 9.2 NW 10.7 0.0 3.0
17:18 5.0 3.7 91 995.5 9.2 N 10.7 0.0 3.0
17:20 5.0 3.5 90 995.4 9.2 W 10.7 0.0 3.0
17:21 5.0 3.5 90 995.3 9.2 N 10.7 0.0 3.0
17:22 5.0 3.5 90 995.6 7.6 NW 10.7 0.0 3.0
17:23 5.0 3.5 90 995.6 9.8 NW 10.7 0.0 3.0
17:24 5.0 3.5 90 995.5 10.7 N 10.7 0.0 3.0
17:25 5.0 3.5 90 995.6 9.2 NW 12.1 0.0 3.0
17:26 5.0 3.5 90 995.5 12.1 W 12.1 0.0 3.0
17:28 5.1 3.6 90 995.5 7.6 N 12.1 0.0 3.0
17:29 5.0 3.5 90 995.6 9.2 W 12.1 0.0 3.0
17:30 5.1 3.6 90 995.7 10.7 NW 12.1 0.0 3.0
17:31 5.1 3.6 90 995.6 8.3 N 12.1 0.0 3.0
17:32 5.1 3.6 90 995.6 8.3 NW 12.1 0.0 3.0
17:34 5.1 3.6 90 995.8 9.2 W 12.1 0.0 3.0
17:35 5.1 3.6 90 995.6 8.3 W 12.1 0.0 3.0
17:36 5.2 3.7 90 995.7 8.3 W 11.4 0.0 3.0
17:37 5.2 3.7 90 995.7 9.2 NW 11.4 0.0 3.0
17:39 5.2 3.7 90 995.8 6.9 W 11.4 0.0 3.0
17:40 5.2 3.7 90 995.8 6.0 N 11.4 0.0 3.0
17:43 5.3 4.0 91 995.7 6.9 SW 13.6 0.0 3.0
17:44 5.3 4.0 91 995.7 6.0 NW 13.6 0.0 3.0
17:45 5.2 3.7 90 995.7 12.1 N 13.6 0.0 3.0
17:47 5.2 3.7 90 995.6 6.9 NW 13.6 0.0 3.0
17:48 5.2 3.9 91 995.7 6.0 W 13.6 0.0 3.0
17:49 5.2 3.7 90 995.5 6.0 NW 13.6 0.0 3.0
17:51 5.2 3.7 90 995.7 9.2 NW 13.6 0.0 3.0
17:52 5.2 3.9 91 995.8 9.2 N 12.1 0.0 3.0
17:53 5.2 3.7 90 995.7 4.5 NW 12.1 0.0 3.0
17:55 5.2 3.9 91 995.8 7.6 SW 12.1 0.0 3.0
17:56 5.2 3.7 90 995.8 6.9 NW 9.8 0.0 3.0
17:57 5.1 3.8 91 995.8 6.0 N 9.8 0.0 3.0
17:58 5.1 3.6 90 995.8 9.8 N 9.8 0.0 3.0
18:00 5.1 3.6 90 995.6 9.2 NW 13.6 0.0 3.0
18:01 5.1 3.6 90 995.8 9.2 NW 13.6 0.0 3.0
18:02 5.1 3.6 90 995.8 9.2 NW 13.6 0.0 3.0
18:04 5.1 3.6 90 995.8 9.2 NW 13.6 0.0 3.0
18:05 5.1 3.6 90 995.8 9.2 NW 13.6 0.0 3.0
18:06 5.2 3.9 91 995.9 9.8 NW 13.6 0.0 3.0
18:08 5.2 3.9 91 995.9 7.6 NW 13.6 0.0 3.0
18:09 5.2 3.9 91 995.9 6.9 NW 12.1 0.0 3.0
18:11 5.2 3.9 91 995.9 13.0 NW 14.5 0.0 3.0
18:13 5.2 3.9 91 995.9 8.3 NE 14.5 0.0 3.0
18:15 5.2 3.9 91 996.0 9.8 N 14.5 0.0 3.0
18:16 5.2 3.9 91 996.1 9.8 N 14.5 0.0 3.0
18:18 5.2 3.9 91 996.2 10.7 NW 14.5 0.0 3.0
18:20 5.3 4.0 91 996.2 9.2 NW 14.5 0.0 3.0
18:21 5.3 4.1 92 996.2 9.2 N 13.6 0.0 3.0
18:23 5.3 4.1 92 996.2 11.4 N 13.6 0.0 3.0
18:24 5.4 4.2 92 996.4 12.1 NE 13.6 0.0 3.0
18:25 5.4 4.2 92 996.5 9.8 N 13.6 0.0 3.0
18:27 5.4 4.2 92 996.6 16.8 WNW 16.8 0.0 3.0
18:28 5.4 4.2 92 996.6 9.8 W 16.8 0.0 3.0
18:29 5.4 4.2 92 996.6 15.9 NW 16.8 0.0 3.0
18:30 5.4 4.2 92 996.6 11.4 NW 16.8 0.0 3.0
18:32 5.4 4.2 92 996.7 12.1 N 16.8 0.0 3.0
18:33 5.4 4.2 92 996.7 7.6 NW 16.8 0.0 3.0
18:34 5.4 4.2 92 996.8 9.8 N 16.8 0.0 3.0
18:35 5.4 4.2 92 996.8 9.8 NW 16.8 0.0 3.0
18:37 5.3 4.1 92 996.9 6.0 NW 16.8 0.0 3.0
18:38 5.3 4.1 92 997.0 6.0 NW 15.9 0.0 3.0
18:39 5.3 4.1 92 997.0 9.2 NW 15.9 0.0 3.0
18:41 5.3 4.3 93 997.0 14.5 N 14.5 0.0 3.0
18:42 5.3 4.3 93 997.2 5.4 NW 14.5 0.0 3.0
18:43 5.2 4.2 93 997.1 9.8 N 14.5 0.0 3.0
18:44 5.3 4.3 93 997.2 8.3 N 14.5 0.0 3.0
18:46 5.2 4.2 93 997.2 9.2 NW 14.5 0.0 3.0
18:47 5.2 4.2 93 997.2 9.2 NW 14.5 0.0 3.0
18:48 5.2 4.2 93 997.2 9.8 W 14.5 0.0 3.0
18:50 5.2 4.2 93 997.2 14.5 NW 14.5 0.0 3.0
18:51 5.2 4.2 93 997.1 11.4 W 14.5 0.0 3.0
18:52 5.2 4.2 93 997.3 13.0 NW 14.5 0.0 3.0
18:53 5.2 4.2 93 997.2 11.4 NW 14.5 0.0 3.0
18:55 5.2 4.2 93 997.4 12.1 NW 14.5 0.0 3.0
18:56 5.2 4.2 93 997.4 8.3 N 14.5 0.0 3.0
18:57 5.2 4.2 93 997.4 9.2 NW 14.5 0.0 3.0
18:58 5.2 4.2 93 997.2 8.3 N 14.5 0.0 3.0
18:59 5.2 4.2 93 997.4 9.2 NW 14.5 0.0 3.0
19:00 5.1 4.1 93 997.6 8.3 NW 14.5 0.0 3.0
19:01 5.1 4.1 93 997.5 8.3 NW 14.5 0.0 3.0
19:02 5.1 4.1 93 997.4 8.3 NW 13.0 0.0 3.0
19:03 5.1 4.1 93 997.5 8.3 NW 12.1 0.0 3.0
19:04 5.1 4.1 93 997.5 8.3 NW 12.1 0.0 3.0
19:06 5.1 4.2 94 997.6 9.2 N 12.1 0.0 3.1
19:07 5.1 4.2 94 997.4 8.3 NW 12.1 0.8 3.1
19:09 5.1 4.2 94 997.4 9.8 NW 12.1 1.5 3.1
19:10 5.0 4.1 94 997.5 6.0 NW 12.1 1.5 3.1
19:12 5.0 4.1 94 997.5 6.9 NW 12.1 0.8 3.1
19:13 4.9 4.0 94 997.4 9.8 E 12.1 0.0 3.1
19:15 4.9 4.0 94 997.4 6.9 W 12.1 0.0 3.1
19:17 4.9 4.0 94 997.3 7.6 NW 9.8 0.0 3.1
19:18 4.8 3.9 94 997.4 9.8 NW 9.8 0.0 3.1
19:20 4.8 4.1 95 997.5 6.0 NW 9.8 0.0 3.1
19:21 4.8 4.1 95 997.5 8.3 NW 9.8 0.0 3.1
19:22 4.8 4.1 95 997.7 4.5 NW 9.8 0.0 3.1
19:23 4.8 4.1 95 997.7 6.9 NW 9.8 0.0 3.1
19:24 4.7 4.0 95 997.6 6.0 NW 9.8 0.0 3.1
19:26 4.7 4.0 95 997.6 3.1 N 9.8 0.0 3.1
19:27 4.7 4.0 95 997.7 3.8 N 9.8 0.0 3.1
19:29 4.7 4.0 95 997.8 5.4 NW 8.3 0.0 3.1
19:30 4.7 4.0 95 997.7 12.1 W 12.1 0.0 3.1
19:32 4.6 3.9 95 997.9 7.6 NW 12.1 0.0 3.1
19:33 4.6 4.0 96 997.9 5.4 W 12.1 0.0 3.1
19:34 4.6 4.0 96 998.0 13.6 NW 13.6 0.0 3.1
19:35 4.7 4.1 96 998.0 6.0 NW 13.6 0.0 3.1
19:36 4.7 4.1 96 998.1 9.8 SW 13.6 0.0 3.1
19:37 4.7 4.1 96 998.1 5.4 N 13.6 0.0 3.1
19:39 4.7 4.1 96 998.0 6.0 N 13.6 0.0 3.1
19:40 4.7 4.1 96 998.1 8.3 N 13.6 0.0 3.1
19:41 4.7 4.1 96 998.2 5.4 NW 13.6 0.0 3.1
19:42 4.8 4.2 96 998.4 9.2 NW 13.6 0.0 3.1
19:43 4.8 4.2 96 998.5 9.8 NW 13.6 0.0 3.1
19:44 4.8 4.2 96 998.4 9.2 NW 9.8 0.0 3.1
19:45 4.9 4.3 96 998.6 4.5 NW 9.8 0.0 3.1
19:46 4.9 4.3 96 998.6 4.5 NW 9.8 0.0 3.1
19:47 4.9 4.3 96 998.6 6.9 W 9.8 0.0 3.2
19:49 5.0 4.4 96 998.7 6.0 NW 9.8 1.5 3.3
19:50 5.0 4.4 96 998.7 5.4 NW 9.8 1.5 3.3
19:51 5.0 4.6 97 998.7 4.5 NW 9.8 2.3 3.3
19:52 5.1 4.5 96 998.8 4.5 NW 9.8 2.3 3.3
19:53 5.1 4.5 96 998.8 6.0 NW 9.8 1.5 3.3
19:54 5.1 4.7 97 998.8 5.4 W 9.2 0.8 3.3
19:56 5.1 4.7 97 998.9 5.4 NW 7.6 0.0 3.3
19:57 5.1 4.7 97 998.9 6.0 W 7.6 0.0 3.3
19:58 5.2 4.8 97 998.9 6.0 SW 7.6 0.8 3.4
19:59 5.2 4.8 97 999.2 5.4 NW 7.6 0.8 3.4
20:00 5.2 4.8 97 999.3 7.6 NW 7.6 0.8 3.4
20:01 5.2 4.8 97 999.1 7.6 NW 7.6 0.8 3.4
20:02 5.2 4.8 97 999.0 7.6 NW 7.6 0.8 3.4
20:03 5.2 4.8 97 999.2 7.6 NW 7.6 0.0 3.4
20:04 5.2 4.8 97 999.2 7.6 NW 7.6 0.0 3.4
20:05 5.3 4.9 97 999.2 8.3 NW 8.3 0.0 3.4
20:07 5.4 5.0 97 999.3 10.7 SW 11.4 0.0 3.4
20:09 5.4 5.0 97 999.4 9.8 N 11.4 0.0 3.4
20:10 5.4 5.0 97 999.4 7.6 N 11.4 0.0 3.4
20:12 5.5 5.1 97 999.4 9.8 NW 11.4 0.0 3.4
20:14 5.5 5.1 97 999.4 6.0 NW 11.4 0.0 3.4
20:15 5.5 5.1 97 999.5 6.9 NW 11.4 0.0 3.4
20:17 5.5 5.1 97 999.4 8.3 W 11.4 0.0 3.4
20:18 5.5 5.1 97 999.5 7.6 NW 10.7 0.0 3.4
20:19 5.6 5.2 97 999.4 5.4 W 15.9 0.0 3.4
20:21 5.6 5.2 97 999.4 6.9 NW 15.9 0.0 3.4
20:22 5.6 5.2 97 999.5 11.4 N 15.9 0.0 3.4
20:23 5.6 5.2 97 999.4 9.8 NW 15.9 0.0 3.4
20:24 5.6 5.2 97 999.6 9.8 NW 15.9 0.0 3.4
20:25 5.6 5.0 96 999.4 15.2 NW 15.9 0.0 3.4
20:26 5.6 5.2 97 999.6 11.4 W 15.9 0.0 3.4
20:27 5.6 5.2 97 999.5 11.4 N 15.9 0.0 3.4
20:28 5.6 5.2 97 999.7 6.0 NW 15.9 0.0 3.4
20:29 5.7 5.3 97 999.6 9.2 NE 15.2 0.0 3.4
20:31 5.7 5.1 96 999.7 7.6 W 15.2 0.0 3.4
20:32 5.7 5.3 97 999.8 7.6 W 15.2 0.0 3.4
20:33 5.7 5.3 97 999.8 4.5 N 15.2 0.0 3.4
20:34 5.7 5.3 97 999.8 5.4 N 15.2 0.0 3.4
20:35 5.7 5.1 96 999.7 7.6 NW 15.2 0.0 3.4
20:36 5.7 5.1 96 999.8 8.3 NW 11.4 0.0 3.4
20:37 5.8 5.2 96 999.8 11.4 NW 11.4 0.0 3.4
20:38 5.7 5.1 96 999.9 8.3 NW 11.4 0.0 3.4
20:39 5.8 5.2 96 999.9 15.9 NW 15.9 0.0 3.4
20:41 5.8 5.2 96 1000.1 11.4 NW 16.8 0.0 3.4
20:42 5.8 5.2 96 1000.1 6.0 NW 16.8 0.0 3.4
20:43 5.8 5.2 96 1000.1 6.9 N 16.8 0.0 3.4
20:45 5.8 5.2 96 1000.3 11.4 NW 16.8 0.0 3.4
20:46 5.8 5.2 96 1000.3 11.4 NW 16.8 0.0 3.4
20:47 5.8 5.2 96 1000.2 10.7 W 16.8 0.0 3.4
20:48 5.9 5.3 96 1000.2 6.9 NW 16.8 0.0 3.4
20:49 5.9 5.3 96 1000.2 12.1 N 16.8 0.0 3.4
20:50 5.9 5.3 96 1000.4 9.2 N 16.8 0.0 3.4
20:52 5.9 5.3 96 1000.4 6.9 NW 12.1 0.0 3.4
20:53 5.9 5.3 96 1000.5 7.6 N 12.1 0.0 3.4
20:54 5.9 5.3 96 1000.3 9.2 NW 12.1 0.0 3.4
20:56 5.9 5.3 96 1000.4 14.5 N 14.5 0.0 3.4
20:57 5.9 5.3 96 1000.4 9.2 NW 14.5 0.0 3.4
20:58 5.9 5.3 96 1000.5 4.5 N 14.5 0.0 3.4
20:59 5.9 5.3 96 1000.5 6.9 W 14.5 0.0 3.4
21:01 5.9 5.3 96 1000.6 6.9 W 14.5 0.0 3.4
21:02 5.9 5.3 96 1000.6 6.9 W 14.5 0.0 3.4
21:03 5.9 5.3 96 1000.7 6.9 W 14.5 0.0 3.4
21:04 5.9 5.3 96 1000.5 6.9 W 14.5 0.0 3.4
21:05 5.9 5.3 96 1000.5 13.6 SW 14.5 0.0 3.4
21:07 6.0 5.4 96 1000.6 13.0 NW 13.6 0.0 3.4
21:09 5.9 5.3 96 1000.9 8.3 NW 13.6 0.0 3.4
21:10 6.0 5.4 96 1000.9 8.3 NW 13.6 0.0 3.4
21:11 5.9 5.3 96 1000.8 13.0 W 13.6 0.0 3.4
21:13 5.9 5.3 96 1000.7 18.3 WNW 18.3 0.0 3.4
21:14 5.9 5.3 96 1000.9 11.4 N 18.3 0.0 3.4
21:16 5.9 5.3 96 1000.9 7.6 NW 18.3 0.0 3.4
21:18 5.8 5.2 96 1000.9 9.8 N 18.3 0.0 3.4
21:19 5.8 5.2 96 1001.0 10.7 NW 18.3 0.0 3.4
21:20 5.8 5.2 96 1001.0 7.6 N 18.3 0.0 3.4
21:21 5.8 5.2 96 1001.0 7.6 NW 18.3 0.0 3.5
21:22 5.7 5.1 96 1000.8 6.0 NNE 18.3 0.8 3.5
21:24 5.7 5.0 95 1000.7 7.6 NW 13.6 1.5 3.5
21:25 5.7 5.0 95 1000.7 7.6 NW 13.6 1.5 3.5
21:26 5.6 4.9 95 1000.7 6.0 N 13.0 1.5 3.5
21:27 5.6 4.9 95 1000.7 7.6 NW 13.0 0.8 3.5
21:28 5.6 4.9 95 1000.7 6.0 NW 10.7 0.0 3.5
21:29 5.6 4.9 95 1000.7 8.3 NW 10.7 0.0 3.5
21:30 5.6 5.0 96 1000.7 8.3 N 8.3 0.0 3.5
21:31 5.5 4.9 96 1000.7 8.3 NW 8.3 0.0 3.5
21:32 5.5 4.9 96 1000.7 8.3 NW 8.3 0.0 3.5
21:33 5.5 4.9 96 1000.8 6.0 NW 8.3 0.0 3.5
21:35 5.5 4.9 96 1000.8 5.4 N 8.3 0.0 3.5
21:36 5.5 4.9 96 1000.8 7.6 NW 8.3 0.0 3.5
21:37 5.5 4.9 96 1000.8 3.8 NW 8.3 0.0 3.5
21:38 5.5 4.9 96 1000.9 6.9 NW 8.3 0.0 3.5
21:39 5.5 4.9 96 1000.7 9.8 NW 9.8 0.0 3.5
21:40 5.5 4.9 96 1000.8 7.6 NW 9.8 0.0 3.5
21:41 5.5 4.9 96 1000.7 4.5 NW 9.8 0.0 3.5
21:42 5.5 4.9 96 1000.9 6.9 N 9.8 0.0 3.5
21:43 5.5 4.9 96 1000.8 5.4 N 9.8 0.0 3.5
21:45 5.5 4.9 96 1000.9 10.7 NW 16.8 0.0 3.5
21:46 5.5 4.9 96 1000.9 13.0 SW 16.8 0.0 3.5
21:47 5.5 4.9 96 1000.9 12.1 WNW 16.8 0.0 3.5
21:48 5.5 4.9 96 1001.0 16.8 NW 16.8 0.0 3.5
21:49 5.5 4.9 96 1001.2 12.1 NW 16.8 0.0 3.5
21:50 5.5 4.9 96 1001.3 15.2 NW 16.8 0.0 3.5
21:51 5.6 5.0 96 1001.2 8.3 NE 16.8 0.0 3.5
21:52 5.6 5.0 96 1001.2 12.1 NW 16.8 0.0 3.5
21:53 5.6 5.0 96 1001.1 13.6 W 16.8 0.0 3.5
21:54 5.6 5.0 96 1001.1 12.1 N 16.8 0.0 3.5
21:56 5.6 5.0 96 1001.2 8.3 NW 16.8 0.0 3.5
21:57 5.6 5.0 96 1001.2 6.9 NW 16.8 0.0 3.5
21:58 5.6 5.0 96 1001.2 6.9 NW 16.8 0.0 3.5
21:59 5.6 5.0 96 1001.3 13.0 NW 15.2 0.0 3.5
22:00 5.5 4.9 96 1001.4 7.6 NW 15.2 0.0 3.5
22:01 5.5 4.9 96 1001.4 7.6 NW 13.6 0.0 3.5
22:02 5.5 4.9 96 1001.2 7.6 NW 13.6 0.0 3.5
22:03 5.5 4.9 96 1001.3 7.6 NW 13.6 0.0 3.5
22:04 5.5 4.9 96 1001.4 7.6 NW 13.0 0.0 3.5
22:05 5.5 4.8 95 1001.3 7.6 NW 13.0 0.0 3.5
22:07 5.4 4.7 95 1001.2 9.2 NW 13.0 0.0 3.5
22:08 5.4 4.7 95 1001.3 7.6 N 13.0 0.0 3.5
22:10 5.4 4.7 95 1001.3 5.4 NW 9.2 0.0 3.5
22:12 5.4 4.7 95 1001.4 4.5 NW 9.2 0.0 3.5
22:13 5.4 4.7 95 1001.4 9.8 NW 9.8 0.0 3.5
22:15 5.4 4.7 95 1001.6 3.8 NW 9.8 0.0 3.5
22:16 5.4 4.7 95 1001.4 8.3 NW 9.8 0.0 3.5
22:18 5.4 4.7 95 1001.5 16.8 NW 16.8 0.0 3.5
22:19 5.4 4.7 95 1001.5 8.3 N 16.8 0.0 3.5
22:20 5.4 4.7 95 1001.7 10.7 W 16.8 0.0 3.5
22:21 5.4 4.7 95 1001.5 7.6 NW 16.8 0.0 3.5
22:22 5.4 4.7 95 1001.6 7.6 S 16.8 0.0 3.5
22:23 5.4 4.7 95 1001.5 8.3 W 16.8 0.0 3.5
22:25 5.4 4.8 96 1001.6 10.7 NW 16.8 0.0 3.5
22:26 5.4 4.7 95 1001.6 9.8 NW 16.8 0.0 3.5
22:27 5.4 4.8 96 1001.6 6.0 W 16.8 0.0 3.5
22:28 5.4 4.8 96 1001.5 8.3 N 16.8 0.0 3.5
22:29 5.4 4.7 95 1001.6 9.8 NW 10.7 0.0 3.5
22:30 5.3 4.6 95 1001.5 7.6 NW 10.7 0.0 3.5
22:31 5.3 4.6 95 1001.4 6.0 N 10.7 0.0 3.5
22:32 5.3 4.6 95 1001.5 6.9 N 10.7 0.0 3.5
22:33 5.3 4.6 95 1001.6 4.5 NW 10.7 0.0 3.5
22:34 5.3 4.6 95 1001.7 4.5 NW 10.7 0.0 3.5
22:36 5.3 4.6 95 1001.6 4.5 N 9.8 0.0 3.5
22:37 5.3 4.6 95 1001.6 5.4 NW 9.8 0.0 3.5
22:38 5.3 4.6 95 1001.6 6.0 NW 9.8 0.0 3.5
22:39 5.2 4.5 95 1001.7 8.3 NW 9.8 0.0 3.5
22:40 5.3 4.6 95 1001.7 8.3 NW 8.3 0.0 3.5
22:41 5.3 4.6 95 1001.7 5.4 N 8.3 0.0 3.5
22:42 5.2 4.5 95 1001.8 6.0 W 8.3 0.0 3.5
22:43 5.2 4.5 95 1001.7 6.9 NW 8.3 0.0 3.5
22:44 5.2 4.5 95 1001.8 6.9 N 8.3 0.0 3.5
22:46 5.2 4.5 95 1001.8 7.6 NW 8.3 0.0 3.5
22:47 5.2 4.5 95 1001.8 5.4 N 8.3 0.0 3.5
22:48 5.2 4.5 95 1001.8 4.5 N 8.3 0.0 3.5
22:49 5.2 4.5 95 1001.8 6.0 NW 8.3 0.0 3.5
22:50 5.2 4.5 95 1001.8 6.9 NW 8.3 0.0 3.5
22:51 5.2 4.5 95 1001.7 10.7 W 10.7 0.0 3.5
22:52 5.2 4.5 95 1001.8 9.2 SW 10.7 0.0 3.5
22:53 5.2 4.5 95 1001.8 6.9 N 10.7 0.0 3.5
22:54 5.2 4.5 95 1001.8 7.6 NW 10.7 0.0 3.5
22:56 5.2 4.5 95 1001.9 6.9 W 10.7 0.0 3.5
22:57 5.2 4.5 95 1001.8 6.0 NW 10.7 0.0 3.5
22:58 5.2 4.5 95 1001.9 6.9 NW 10.7 0.0 3.5
22:59 5.2 4.5 95 1001.9 6.9 NW 10.7 0.0 3.5
23:00 5.2 4.5 95 1001.9 5.4 W 10.7 0.0 3.5
23:01 5.2 4.5 95 1002.0 5.4 W 10.7 0.0 3.5
23:02 5.2 4.5 95 1002.1 5.4 W 9.2 0.0 3.5
23:03 5.2 4.5 95 1002.2 5.4 W 7.6 0.0 3.5
23:04 5.2 4.5 95 1002.2 5.4 W 6.9 0.0 3.5
23:06 5.2 4.5 95 1002.2 7.6 NW 9.2 0.0 3.5
23:07 5.2 4.5 95 1002.2 6.0 N 9.2 0.0 3.5
23:08 5.2 4.5 95 1002.3 6.9 NW 9.8 0.0 3.5
23:10 5.2 4.5 95 1002.3 7.6 NW 9.8 0.0 3.5
23:11 5.2 4.5 95 1002.3 5.4 NW 9.8 0.0 3.5
23:13 5.2 4.5 95 1002.3 3.8 NW 9.8 0.0 3.5
23:14 5.2 4.5 95 1002.4 4.5 NW 9.8 0.0 3.5
23:16 5.2 4.5 95 1002.4 6.0 NW 9.8 0.0 3.5
23:17 5.2 4.5 95 1002.5 6.0 N 9.8 0.0 3.5
23:19 5.2 4.5 95 1002.6 6.0 NW 7.6 0.0 3.5
23:21 5.2 4.5 95 1002.5 5.4 N 7.6 0.0 3.5
23:22 5.2 4.5 95 1002.7 4.5 NW 7.6 0.0 3.5
23:23 5.2 4.5 95 1002.7 6.0 NW 7.6 0.0 3.5
23:24 5.2 4.5 95 1002.7 3.1 NW 7.6 0.0 3.5
23:25 5.2 4.5 95 1002.7 6.9 NW 7.6 0.0 3.5
23:27 5.2 4.6 96 1002.7 4.5 N 7.6 0.0 3.5
23:28 5.2 4.5 95 1002.8 6.0 NW 7.6 0.0 3.5
23:29 5.2 4.5 95 1002.8 6.0 NW 7.6 0.0 3.5
23:30 5.2 4.6 96 1002.8 7.6 N 7.6 0.0 3.5
23:31 5.2 4.6 96 1002.8 6.9 N 7.6 0.0 3.5
23:32 5.2 4.5 95 1002.8 6.0 W 7.6 0.0 3.5
23:33 5.2 4.6 96 1002.8 3.8 N 7.6 0.0 3.5
23:34 5.2 4.6 96 1002.8 4.5 N 7.6 0.0 3.5
23:36 5.1 4.4 95 1002.9 3.8 W 7.6 0.0 3.5
23:37 5.1 4.4 95 1002.8 2.2 NW 7.6 0.0 3.5
23:38 5.1 4.4 95 1002.7 4.5 N 7.6 0.0 3.5
23:40 5.1 4.4 95 1002.8 3.1 NW 7.6 0.0 3.5
23:41 5.1 4.4 95 1002.8 3.8 NW 6.9 0.0 3.5
23:42 5.1 4.4 95 1002.8 3.1 NW 6.0 0.0 3.5
23:43 5.0 4.3 95 1002.9 4.5 NW 6.0 0.0 3.5
23:44 5.0 4.3 95 1003.1 3.8 N 6.0 0.0 3.5
23:45 5.0 4.3 95 1003.1 3.1 N 6.0 0.0 3.5
23:46 5.0 4.3 95 1003.1 2.2 N 6.0 0.0 3.5
23:47 5.0 4.3 95 1003.2 2.2 N 6.0 0.0 3.5
23:49 5.0 4.3 95 1003.2 1.6 N 6.0 0.0 3.5
23:50 4.9 4.2 95 1003.2 2.2 N 4.5 0.0 3.5
23:51 4.9 4.2 95 1003.1 2.2 N 4.5 0.0 3.5
23:52 4.9 4.2 95 1003.1 2.2 N 4.5 0.0 3.5
23:53 4.9 4.2 95 1003.1 2.2 N 4.5 0.0 3.5
23:54 4.8 4.1 95 1003.0 3.1 N 4.5 0.0 3.5
23:55 4.8 4.1 95 1003.2 3.1 N 4.5 0.0 3.5
23:56 4.8 4.1 95 1003.1 5.4 NE 5.4 0.0 3.5
23:58 4.7 4.0 95 1003.2 6.0 NE 6.0 0.0 3.5
23:59 4.7 4.0 95 1003.2 4.5 NE 6.0 0.0 3.5

UK - WEATHER STATION TOPSITES - UK World Weather Websites

This is a private weather station, never base important decisions or events on data from this weather station. Although every effort has been made to make the data as accurate as possible it does not meet MetOffice standards. It is proved as a guide of local weather conditions. We accept no liability for any loss which may arise from use of the data.

Copyright © Carnkie Weather 2009 - 2017.